BAW75 EGLL-KJFK
Flight info
| Callsign | BAW75 |
|---|---|
| Flight time | 6h 59m |
| Altitude | 36000 |
| Route | ULTIB T420 TNT UL28 PENIL M144 BAGSO DCT DOGAL/M085F370 NATD JOOPY/N0489F380 N328A TUSKY DCT PLYMM PARCH4 |
| Aircraft | A35K/H-SDE2E3GHIJ3J4J5LM1ORWXY/LB1D1 |
Departure
| Time | 2026-05-08 11:29 |
|---|---|
| Airport | London Heathrow Airport (EGLL) |
Arrival
| Time | 2026-05-08 18:29 |
|---|---|
| Airport | John F. Kennedy International Airport (KJFK) |
| Time | Latitude | Longitude | Altitude | Speed | Heading |
|---|---|---|---|---|---|
| 2026-05-08 11:00 | 51.47220 | -0.47727 | 92 ft | 0 kts | 89° |
| 2026-05-08 11:16 | 51.47220 | -0.47729 | 92 ft | 2 kts | 89° |
| 2026-05-08 11:16 | 51.47220 | -0.47769 | 93 ft | 4 kts | 89° |
| 2026-05-08 11:16 | 51.47220 | -0.47805 | 93 ft | 4 kts | 91° |
| 2026-05-08 11:17 | 51.47221 | -0.47827 | 93 ft | 4 kts | 104° |
| 2026-05-08 11:17 | 51.47221 | -0.47828 | 93 ft | 4 kts | 105° |
| 2026-05-08 11:17 | 51.47232 | -0.47862 | 92 ft | 4 kts | 148° |
| 2026-05-08 11:18 | 51.47257 | -0.47874 | 91 ft | 4 kts | 178° |
| 2026-05-08 11:18 | 51.47282 | -0.47874 | 92 ft | 4 kts | 179° |
| 2026-05-08 11:18 | 51.47289 | -0.47874 | 92 ft | 4 kts | 179° |
| 2026-05-08 11:19 | 51.47305 | -0.47874 | 92 ft | 4 kts | 179° |
| 2026-05-08 11:19 | 51.47312 | -0.47875 | 92 ft | 0 kts | 179° |
| 2026-05-08 11:23 | 51.47291 | -0.47874 | 92 ft | 6 kts | 179° |
| 2026-05-08 11:23 | 51.47224 | -0.47872 | 92 ft | 12 kts | 178° |
| 2026-05-08 11:24 | 51.47118 | -0.47872 | 92 ft | 18 kts | 180° |
| 2026-05-08 11:24 | 51.46978 | -0.47871 | 95 ft | 22 kts | 182° |
| 2026-05-08 11:24 | 51.46812 | -0.47867 | 92 ft | 20 kts | 179° |
| 2026-05-08 11:24 | 51.46790 | -0.47867 | 92 ft | 0 kts | 179° |
| 2026-05-08 11:25 | 51.46788 | -0.47867 | 93 ft | 2 kts | 179° |
| 2026-05-08 11:25 | 51.46736 | -0.47866 | 96 ft | 14 kts | 179° |
| 2026-05-08 11:26 | 51.46656 | -0.47972 | 97 ft | 20 kts | 260° |
| 2026-05-08 11:26 | 51.46654 | -0.48251 | 92 ft | 30 kts | 269° |
| 2026-05-08 11:26 | 51.46653 | -0.48594 | 92 ft | 29 kts | 268° |
| 2026-05-08 11:26 | 51.46630 | -0.48734 | 97 ft | 0 kts | 218° |
| 2026-05-08 11:27 | 51.46629 | -0.48735 | 97 ft | 0 kts | 218° |
| 2026-05-08 11:28 | 51.46591 | -0.48765 | 96 ft | 13 kts | 201° |
| 2026-05-08 11:28 | 51.46484 | -0.48723 | 97 ft | 21 kts | 126° |
| 2026-05-08 11:28 | 51.46478 | -0.48455 | 92 ft | 34 kts | 91° |
| 2026-05-08 11:29 | 51.46476 | -0.47654 | 95 ft | 110 kts | 90° |
| 2026-05-08 11:29 | 51.46469 | -0.46085 | 101 ft | 171 kts | 92° |
| 2026-05-08 11:29 | 51.46492 | -0.44114 | 844 ft | 178 kts | 92° |
| 2026-05-08 11:29 | 51.46473 | -0.42080 | 1608 ft | 191 kts | 100° |
| 2026-05-08 11:30 | 51.45853 | -0.40106 | 2032 ft | 209 kts | 125° |
| 2026-05-08 11:30 | 51.45423 | -0.37835 | 2478 ft | 229 kts | 91° |
| 2026-05-08 11:30 | 51.45929 | -0.35341 | 3012 ft | 249 kts | 57° |
| 2026-05-08 11:30 | 51.47178 | -0.33325 | 3661 ft | 259 kts | 47° |
| 2026-05-08 11:31 | 51.48394 | -0.31167 | 4419 ft | 265 kts | 48° |
| 2026-05-08 11:31 | 51.49694 | -0.29010 | 5170 ft | 272 kts | 48° |
| 2026-05-08 11:31 | 51.51005 | -0.26792 | 5756 ft | 276 kts | 49° |
| 2026-05-08 11:31 | 51.52323 | -0.24535 | 5980 ft | 278 kts | 48° |
| 2026-05-08 11:32 | 51.53862 | -0.22617 | 5991 ft | 282 kts | 27° |
| 2026-05-08 11:32 | 51.55763 | -0.21961 | 5995 ft | 282 kts | 356° |
| 2026-05-08 11:32 | 51.57672 | -0.22390 | 5998 ft | 281 kts | 348° |
| 2026-05-08 11:32 | 51.59593 | -0.23023 | 6110 ft | 282 kts | 347° |
| 2026-05-08 11:33 | 51.61500 | -0.23769 | 6125 ft | 281 kts | 339° |
| 2026-05-08 11:33 | 51.63247 | -0.25146 | 6130 ft | 280 kts | 328° |
| 2026-05-08 11:33 | 51.64922 | -0.26765 | 6127 ft | 281 kts | 327° |
| 2026-05-08 11:33 | 51.66589 | -0.28398 | 6155 ft | 281 kts | 327° |
| 2026-05-08 11:34 | 51.68267 | -0.30029 | 6487 ft | 283 kts | 327° |
| 2026-05-08 11:34 | 51.69955 | -0.31669 | 7297 ft | 283 kts | 327° |
| 2026-05-08 11:34 | 51.71642 | -0.33303 | 8207 ft | 283 kts | 327° |
| 2026-05-08 11:34 | 51.73332 | -0.34933 | 9047 ft | 284 kts | 327° |
| 2026-05-08 11:35 | 51.75043 | -0.36581 | 9876 ft | 288 kts | 327° |
| 2026-05-08 11:35 | 51.76775 | -0.38256 | 10547 ft | 296 kts | 327° |
| 2026-05-08 11:35 | 51.78572 | -0.40002 | 10862 ft | 315 kts | 327° |
| 2026-05-08 11:35 | 51.80498 | -0.41878 | 11208 ft | 332 kts | 327° |
| 2026-05-08 11:36 | 51.82526 | -0.43846 | 11547 ft | 349 kts | 327° |
| 2026-05-08 11:36 | 51.84650 | -0.45908 | 11936 ft | 362 kts | 327° |
| 2026-05-08 11:36 | 51.86827 | -0.48022 | 12505 ft | 369 kts | 327° |
| 2026-05-08 11:36 | 51.89047 | -0.50177 | 13147 ft | 373 kts | 327° |
| 2026-05-08 11:37 | 51.91279 | -0.52346 | 13790 ft | 377 kts | 327° |
| 2026-05-08 11:37 | 51.93532 | -0.54541 | 14408 ft | 380 kts | 327° |
| 2026-05-08 11:37 | 51.95815 | -0.56764 | 14992 ft | 384 kts | 327° |
| 2026-05-08 11:37 | 51.98114 | -0.59006 | 15570 ft | 387 kts | 327° |
| 2026-05-08 11:38 | 52.00436 | -0.61279 | 16141 ft | 391 kts | 327° |
| 2026-05-08 11:38 | 52.02745 | -0.63542 | 16726 ft | 395 kts | 327° |
| 2026-05-08 11:38 | 52.05105 | -0.65860 | 17307 ft | 399 kts | 327° |
| 2026-05-08 11:38 | 52.07486 | -0.68201 | 17894 ft | 402 kts | 327° |
| 2026-05-08 11:39 | 52.09894 | -0.70569 | 18465 ft | 405 kts | 327° |
| 2026-05-08 11:39 | 52.12317 | -0.72954 | 18982 ft | 408 kts | 327° |
| 2026-05-08 11:39 | 52.14748 | -0.75344 | 19509 ft | 410 kts | 327° |
| 2026-05-08 11:39 | 52.17198 | -0.77756 | 20034 ft | 413 kts | 327° |
| 2026-05-08 11:40 | 52.19656 | -0.80187 | 20527 ft | 415 kts | 327° |
| 2026-05-08 11:40 | 52.22133 | -0.82641 | 21050 ft | 417 kts | 327° |
| 2026-05-08 11:40 | 52.24588 | -0.85076 | 21544 ft | 419 kts | 327° |
| 2026-05-08 11:40 | 52.27092 | -0.87556 | 22037 ft | 422 kts | 327° |
| 2026-05-08 11:41 | 52.29605 | -0.90054 | 22519 ft | 424 kts | 327° |
| 2026-05-08 11:41 | 52.32130 | -0.92571 | 22989 ft | 427 kts | 327° |
| 2026-05-08 11:41 | 52.34672 | -0.95107 | 23466 ft | 429 kts | 327° |
| 2026-05-08 11:41 | 52.37228 | -0.97662 | 23882 ft | 432 kts | 327° |
| 2026-05-08 11:42 | 52.39795 | -1.00230 | 24323 ft | 432 kts | 327° |
| 2026-05-08 11:42 | 52.42359 | -1.02794 | 24789 ft | 433 kts | 327° |
| 2026-05-08 11:42 | 52.44933 | -1.05369 | 25172 ft | 434 kts | 327° |
| 2026-05-08 11:42 | 52.47482 | -1.07923 | 25569 ft | 436 kts | 327° |
| 2026-05-08 11:43 | 52.50075 | -1.10522 | 25995 ft | 438 kts | 327° |
| 2026-05-08 11:43 | 52.52678 | -1.13133 | 26437 ft | 439 kts | 327° |
| 2026-05-08 11:43 | 52.55290 | -1.15763 | 26872 ft | 441 kts | 327° |
| 2026-05-08 11:43 | 52.57913 | -1.18410 | 27373 ft | 443 kts | 326° |
| 2026-05-08 11:44 | 52.60544 | -1.21068 | 27855 ft | 445 kts | 326° |
| 2026-05-08 11:44 | 52.63185 | -1.23740 | 28362 ft | 447 kts | 326° |
| 2026-05-08 11:44 | 52.65802 | -1.26391 | 28869 ft | 448 kts | 326° |
| 2026-05-08 11:44 | 52.68454 | -1.29080 | 29393 ft | 451 kts | 326° |
| 2026-05-08 11:45 | 52.71133 | -1.31799 | 29906 ft | 453 kts | 326° |
| 2026-05-08 11:45 | 52.73825 | -1.34532 | 30466 ft | 455 kts | 326° |
| 2026-05-08 11:45 | 52.76525 | -1.37283 | 30919 ft | 457 kts | 326° |
| 2026-05-08 11:45 | 52.79236 | -1.40053 | 31350 ft | 459 kts | 326° |
| 2026-05-08 11:46 | 52.81947 | -1.42829 | 31790 ft | 461 kts | 326° |
| 2026-05-08 11:46 | 52.84678 | -1.45627 | 32221 ft | 462 kts | 325° |
| 2026-05-08 11:46 | 52.87407 | -1.48427 | 32781 ft | 460 kts | 325° |
| 2026-05-08 11:46 | 52.90118 | -1.51209 | 33451 ft | 455 kts | 325° |
| 2026-05-08 11:47 | 52.92763 | -1.53925 | 34018 ft | 454 kts | 324° |
| 2026-05-08 11:47 | 52.95444 | -1.56685 | 34430 ft | 454 kts | 324° |
| 2026-05-08 11:47 | 52.98135 | -1.59464 | 34731 ft | 456 kts | 324° |
| 2026-05-08 11:47 | 53.00834 | -1.62256 | 35059 ft | 458 kts | 324° |
| 2026-05-08 11:48 | 53.03541 | -1.65060 | 35367 ft | 461 kts | 324° |
| 2026-05-08 11:48 | 53.06263 | -1.67880 | 35690 ft | 462 kts | 324° |
| 2026-05-08 11:48 | 53.08998 | -1.70714 | 36006 ft | 464 kts | 324° |
| 2026-05-08 11:49 | 53.14440 | -1.76379 | 36096 ft | 465 kts | 324° |
| 2026-05-08 11:49 | 53.19873 | -1.82222 | 36093 ft | 463 kts | 320° |
| 2026-05-08 11:50 | 53.24421 | -1.89680 | 36106 ft | 456 kts | 304° |
| 2026-05-08 11:50 | 53.27632 | -1.98750 | 36081 ft | 453 kts | 295° |
| 2026-05-08 11:51 | 53.30431 | -2.08106 | 36109 ft | 453 kts | 294° |
| 2026-05-08 11:51 | 53.33189 | -2.17580 | 36111 ft | 452 kts | 294° |
| 2026-05-08 11:52 | 53.35794 | -2.27138 | 36093 ft | 451 kts | 287° |
| 2026-05-08 11:52 | 53.37806 | -2.37072 | 36095 ft | 450 kts | 286° |
| 2026-05-08 11:53 | 53.39710 | -2.47064 | 36107 ft | 450 kts | 286° |
| 2026-05-08 11:53 | 53.41575 | -2.57001 | 36106 ft | 450 kts | 286° |
| 2026-05-08 11:54 | 53.43445 | -2.66981 | 36091 ft | 449 kts | 285° |
| 2026-05-08 11:54 | 53.45312 | -2.76963 | 36087 ft | 448 kts | 285° |
| 2026-05-08 11:55 | 53.47170 | -2.86956 | 36095 ft | 448 kts | 285° |
| 2026-05-08 11:55 | 53.49014 | -2.96871 | 36098 ft | 448 kts | 285° |
| 2026-05-08 11:56 | 53.50859 | -3.06879 | 36114 ft | 448 kts | 285° |
| 2026-05-08 11:56 | 53.52692 | -3.16890 | 36101 ft | 448 kts | 284° |
| 2026-05-08 11:57 | 53.54514 | -3.26894 | 36106 ft | 448 kts | 284° |
| 2026-05-08 11:57 | 53.56327 | -3.36902 | 36098 ft | 448 kts | 284° |
| 2026-05-08 11:58 | 53.58122 | -3.46856 | 36092 ft | 448 kts | 284° |
| 2026-05-08 11:58 | 53.59924 | -3.56878 | 36092 ft | 447 kts | 284° |
| 2026-05-08 11:59 | 53.61834 | -3.72158 | 36088 ft | 444 kts | 273° |
| 2026-05-08 11:59 | 53.62319 | -3.82516 | 36081 ft | 444 kts | 272° |
| 2026-05-08 12:00 | 53.62719 | -3.92815 | 36084 ft | 443 kts | 272° |
| 2026-05-08 12:00 | 53.63122 | -4.03183 | 36087 ft | 443 kts | 272° |
| 2026-05-08 12:01 | 53.63523 | -4.13557 | 36081 ft | 444 kts | 272° |
| 2026-05-08 12:01 | 53.63918 | -4.23924 | 36444 ft | 444 kts | 271° |
| 2026-05-08 12:02 | 53.64108 | -4.29039 | 36818 ft | 444 kts | 271° |
| 2026-05-08 12:02 | 53.64302 | -4.34242 | 37061 ft | 446 kts | 271° |
| 2026-05-08 12:02 | 53.64684 | -4.44676 | 37076 ft | 445 kts | 271° |
| 2026-05-08 12:03 | 53.65058 | -4.55105 | 37078 ft | 446 kts | 271° |
| 2026-05-08 12:03 | 53.65384 | -4.65006 | 37087 ft | 446 kts | 271° |
| 2026-05-08 12:04 | 53.65721 | -4.75383 | 37080 ft | 446 kts | 271° |
| 2026-05-08 12:04 | 53.66080 | -4.85804 | 37089 ft | 445 kts | 271° |
| 2026-05-08 12:05 | 53.66430 | -4.96226 | 37086 ft | 445 kts | 271° |
| 2026-05-08 12:05 | 53.66758 | -5.06571 | 37089 ft | 445 kts | 271° |
| 2026-05-08 12:06 | 53.67078 | -5.16997 | 37091 ft | 445 kts | 271° |
| 2026-05-08 12:06 | 53.67385 | -5.27419 | 37089 ft | 445 kts | 270° |
| 2026-05-08 12:07 | 53.67676 | -5.37833 | 37089 ft | 444 kts | 270° |
| 2026-05-08 12:07 | 53.67960 | -5.48238 | 37089 ft | 444 kts | 270° |
| 2026-05-08 12:08 | 53.68430 | -5.58577 | 37089 ft | 446 kts | 274° |
| 2026-05-08 12:08 | 53.69274 | -5.68952 | 37088 ft | 446 kts | 275° |
| 2026-05-08 12:09 | 53.70112 | -5.79325 | 37088 ft | 446 kts | 274° |
| 2026-05-08 12:09 | 53.70872 | -5.89654 | 37091 ft | 446 kts | 274° |
| 2026-05-08 12:10 | 53.71237 | -5.94843 | 37238 ft | 447 kts | 274° |
| 2026-05-08 12:10 | 53.71598 | -6.00052 | 37582 ft | 447 kts | 274° |
| 2026-05-08 12:10 | 53.71957 | -6.05277 | 37910 ft | 448 kts | 274° |
| 2026-05-08 12:10 | 53.72314 | -6.10501 | 38214 ft | 449 kts | 274° |
| 2026-05-08 12:11 | 53.72671 | -6.15751 | 38511 ft | 450 kts | 274° |
| 2026-05-08 12:11 | 53.73027 | -6.21002 | 38779 ft | 451 kts | 274° |
| 2026-05-08 12:11 | 53.73382 | -6.26267 | 39007 ft | 452 kts | 274° |
| 2026-05-08 12:11 | 53.73732 | -6.31484 | 39234 ft | 453 kts | 274° |
| 2026-05-08 12:12 | 53.74084 | -6.36770 | 39459 ft | 453 kts | 274° |
| 2026-05-08 12:12 | 53.74433 | -6.42061 | 39660 ft | 454 kts | 274° |
| 2026-05-08 12:12 | 53.74781 | -6.47367 | 39869 ft | 455 kts | 274° |
| 2026-05-08 12:12 | 53.75128 | -6.52685 | 40080 ft | 456 kts | 274° |
| 2026-05-08 12:13 | 53.75474 | -6.58022 | 40285 ft | 456 kts | 274° |
| 2026-05-08 12:13 | 53.75816 | -6.63338 | 40481 ft | 457 kts | 274° |
| 2026-05-08 12:13 | 53.76156 | -6.68671 | 40681 ft | 458 kts | 274° |
| 2026-05-08 12:13 | 53.76496 | -6.74024 | 40867 ft | 458 kts | 274° |
| 2026-05-08 12:14 | 53.76833 | -6.79386 | 41039 ft | 459 kts | 274° |
| 2026-05-08 12:14 | 53.77164 | -6.84687 | 41085 ft | 460 kts | 274° |
| 2026-05-08 12:14 | 53.77829 | -6.95447 | 41078 ft | 460 kts | 273° |
| 2026-05-08 12:15 | 53.78485 | -7.06216 | 41080 ft | 460 kts | 273° |
| 2026-05-08 12:15 | 53.79131 | -7.16986 | 41070 ft | 460 kts | 273° |
| 2026-05-08 12:16 | 53.79762 | -7.27685 | 41070 ft | 460 kts | 273° |
| 2026-05-08 12:16 | 53.80388 | -7.38454 | 41071 ft | 460 kts | 273° |
| 2026-05-08 12:17 | 53.81005 | -7.49230 | 41069 ft | 461 kts | 273° |
| 2026-05-08 12:17 | 53.81613 | -7.60030 | 41068 ft | 461 kts | 273° |
| 2026-05-08 12:18 | 53.82212 | -7.70831 | 41073 ft | 461 kts | 273° |
| 2026-05-08 12:18 | 53.82796 | -7.81552 | 41069 ft | 461 kts | 273° |
| 2026-05-08 12:19 | 53.83373 | -7.92333 | 41071 ft | 461 kts | 272° |
| 2026-05-08 12:19 | 53.83942 | -8.03163 | 41069 ft | 461 kts | 272° |
| 2026-05-08 12:20 | 53.84502 | -8.13999 | 41071 ft | 461 kts | 272° |
| 2026-05-08 12:20 | 53.85053 | -8.24833 | 41068 ft | 461 kts | 272° |
| 2026-05-08 12:21 | 53.85593 | -8.35655 | 41077 ft | 461 kts | 272° |
| 2026-05-08 12:21 | 53.86122 | -8.46428 | 41079 ft | 461 kts | 272° |
| 2026-05-08 12:22 | 53.86643 | -8.57272 | 41074 ft | 462 kts | 272° |
| 2026-05-08 12:22 | 53.87155 | -8.68112 | 41076 ft | 462 kts | 272° |
| 2026-05-08 12:23 | 53.87659 | -8.78968 | 41076 ft | 462 kts | 272° |
| 2026-05-08 12:23 | 53.88152 | -8.89822 | 41074 ft | 462 kts | 272° |
| 2026-05-08 12:24 | 53.88635 | -9.00674 | 41075 ft | 462 kts | 272° |
| 2026-05-08 12:24 | 53.89106 | -9.11529 | 41079 ft | 462 kts | 272° |
| 2026-05-08 12:25 | 53.89567 | -9.22396 | 41089 ft | 462 kts | 272° |
| 2026-05-08 12:25 | 53.90020 | -9.33276 | 41096 ft | 463 kts | 272° |
| 2026-05-08 12:26 | 53.90465 | -9.44171 | 41099 ft | 463 kts | 271° |
| 2026-05-08 12:26 | 53.90898 | -9.55011 | 41109 ft | 464 kts | 271° |
| 2026-05-08 12:27 | 53.91323 | -9.65929 | 41111 ft | 464 kts | 271° |
| 2026-05-08 12:27 | 53.91739 | -9.76858 | 41117 ft | 464 kts | 271° |
| 2026-05-08 12:28 | 53.92145 | -9.87790 | 41119 ft | 464 kts | 271° |
| 2026-05-08 12:28 | 53.92475 | -9.96870 | 41124 ft | 464 kts | 271° |
| 2026-05-08 12:29 | 53.92863 | -10.07812 | 41128 ft | 464 kts | 271° |
| 2026-05-08 12:29 | 53.93241 | -10.18777 | 41132 ft | 465 kts | 271° |
| 2026-05-08 12:30 | 53.93610 | -10.29733 | 41135 ft | 465 kts | 271° |
| 2026-05-08 12:30 | 53.93966 | -10.40617 | 41138 ft | 465 kts | 271° |
| 2026-05-08 12:31 | 53.94315 | -10.51573 | 41135 ft | 465 kts | 271° |
| 2026-05-08 12:31 | 53.94654 | -10.62550 | 41136 ft | 465 kts | 271° |
| 2026-05-08 12:32 | 53.94982 | -10.73524 | 41138 ft | 465 kts | 270° |
| 2026-05-08 12:32 | 53.95302 | -10.84509 | 41138 ft | 465 kts | 270° |
| 2026-05-08 12:33 | 53.95609 | -10.95424 | 41140 ft | 465 kts | 270° |
| 2026-05-08 12:33 | 53.95908 | -11.06410 | 41143 ft | 465 kts | 270° |
| 2026-05-08 12:34 | 53.96198 | -11.17426 | 41143 ft | 465 kts | 270° |
| 2026-05-08 12:34 | 53.96477 | -11.28398 | 41143 ft | 465 kts | 270° |
| 2026-05-08 12:35 | 53.96744 | -11.39321 | 41147 ft | 465 kts | 270° |
| 2026-05-08 12:35 | 53.97003 | -11.50305 | 41147 ft | 465 kts | 270° |
| 2026-05-08 12:36 | 53.97252 | -11.61310 | 41147 ft | 465 kts | 270° |
| 2026-05-08 12:36 | 53.97492 | -11.72315 | 41149 ft | 466 kts | 270° |
| 2026-05-08 12:37 | 53.97719 | -11.83252 | 41150 ft | 466 kts | 270° |
| 2026-05-08 12:37 | 53.97939 | -11.94266 | 41152 ft | 466 kts | 270° |
| 2026-05-08 12:38 | 53.98149 | -12.05312 | 41150 ft | 466 kts | 270° |
| 2026-05-08 12:38 | 53.98348 | -12.16338 | 41154 ft | 466 kts | 270° |
| 2026-05-08 12:39 | 53.98536 | -12.27289 | 41158 ft | 467 kts | 270° |
| 2026-05-08 12:39 | 53.98715 | -12.38336 | 41158 ft | 467 kts | 269° |
| 2026-05-08 12:40 | 53.98885 | -12.49376 | 41158 ft | 467 kts | 269° |
| 2026-05-08 12:40 | 53.99044 | -12.60413 | 41162 ft | 467 kts | 269° |
| 2026-05-08 12:41 | 53.99193 | -12.71464 | 41157 ft | 467 kts | 269° |
| 2026-05-08 12:41 | 53.99332 | -12.82513 | 41163 ft | 468 kts | 269° |
| 2026-05-08 12:42 | 53.99461 | -12.93574 | 41167 ft | 468 kts | 269° |
| 2026-05-08 12:42 | 53.99579 | -13.04582 | 41169 ft | 468 kts | 269° |
| 2026-05-08 12:43 | 53.99688 | -13.15652 | 41162 ft | 468 kts | 269° |
| 2026-05-08 12:43 | 53.99787 | -13.26717 | 41179 ft | 468 kts | 269° |
| 2026-05-08 12:44 | 53.99875 | -13.37791 | 41171 ft | 469 kts | 269° |
| 2026-05-08 12:44 | 53.99953 | -13.48882 | 41183 ft | 469 kts | 269° |
| 2026-05-08 12:45 | 54.00022 | -13.60007 | 41170 ft | 470 kts | 269° |
| 2026-05-08 12:45 | 54.00080 | -13.71113 | 41178 ft | 470 kts | 269° |
| 2026-05-08 12:46 | 54.00128 | -13.82169 | 41189 ft | 470 kts | 269° |
| 2026-05-08 12:46 | 54.00165 | -13.93305 | 41175 ft | 471 kts | 269° |
| 2026-05-08 12:47 | 54.00193 | -14.04437 | 41180 ft | 471 kts | 269° |
| 2026-05-08 12:47 | 54.00210 | -14.15585 | 41183 ft | 471 kts | 269° |
| 2026-05-08 12:48 | 54.00217 | -14.26721 | 41195 ft | 471 kts | 268° |
| 2026-05-08 12:48 | 54.00214 | -14.37856 | 41186 ft | 471 kts | 269° |
| 2026-05-08 12:49 | 54.00200 | -14.48950 | 41189 ft | 472 kts | 268° |
| 2026-05-08 12:49 | 54.00176 | -14.60130 | 41190 ft | 472 kts | 268° |
| 2026-05-08 12:50 | 54.00142 | -14.71316 | 41187 ft | 473 kts | 268° |
| 2026-05-08 12:50 | 54.00097 | -14.82495 | 41188 ft | 473 kts | 268° |
| 2026-05-08 12:51 | 54.00012 | -14.99213 | 41195 ft | 474 kts | 268° |
| 2026-05-08 12:52 | 54.00091 | -15.10418 | 41199 ft | 475 kts | 271° |
| 2026-05-08 12:52 | 54.00508 | -15.27235 | 41202 ft | 475 kts | 271° |
| 2026-05-08 12:53 | 54.00743 | -15.38458 | 41205 ft | 475 kts | 270° |
| 2026-05-08 12:53 | 54.00939 | -15.49676 | 41211 ft | 474 kts | 271° |
| 2026-05-08 12:54 | 54.01116 | -15.60829 | 41209 ft | 476 kts | 271° |
| 2026-05-08 12:54 | 54.01286 | -15.72063 | 41209 ft | 474 kts | 270° |
| 2026-05-08 12:55 | 54.01446 | -15.83287 | 41214 ft | 475 kts | 270° |
| 2026-05-08 12:55 | 54.01597 | -15.94525 | 41213 ft | 474 kts | 270° |
| 2026-05-08 12:56 | 54.01735 | -16.05675 | 41219 ft | 475 kts | 270° |
| 2026-05-08 12:56 | 54.01864 | -16.16927 | 41222 ft | 475 kts | 270° |
| 2026-05-08 12:57 | 54.01983 | -16.28147 | 41218 ft | 475 kts | 270° |
| 2026-05-08 12:57 | 54.02092 | -16.39399 | 41220 ft | 475 kts | 270° |
| 2026-05-08 12:58 | 54.02189 | -16.50627 | 41220 ft | 475 kts | 270° |
| 2026-05-08 12:58 | 54.02277 | -16.61886 | 41230 ft | 475 kts | 270° |
| 2026-05-08 12:59 | 54.02354 | -16.73043 | 41230 ft | 475 kts | 270° |
| 2026-05-08 12:59 | 54.02421 | -16.84277 | 41231 ft | 475 kts | 270° |
| 2026-05-08 13:00 | 54.02476 | -16.95502 | 41230 ft | 475 kts | 270° |
| 2026-05-08 13:00 | 54.02522 | -17.06758 | 41231 ft | 475 kts | 270° |
| 2026-05-08 13:01 | 54.02557 | -17.17977 | 41230 ft | 475 kts | 270° |
| 2026-05-08 13:01 | 54.02582 | -17.29242 | 41239 ft | 476 kts | 270° |
| 2026-05-08 13:02 | 54.02596 | -17.40456 | 41240 ft | 475 kts | 270° |
| 2026-05-08 13:02 | 54.02600 | -17.51651 | 41243 ft | 476 kts | 270° |
| 2026-05-08 13:03 | 54.02593 | -17.62883 | 41241 ft | 475 kts | 270° |
| 2026-05-08 13:03 | 54.02575 | -17.74173 | 41242 ft | 477 kts | 270° |
| 2026-05-08 13:04 | 54.02547 | -17.85488 | 41244 ft | 478 kts | 270° |
| 2026-05-08 13:04 | 54.02508 | -17.96823 | 41254 ft | 478 kts | 270° |
| 2026-05-08 13:05 | 54.02459 | -18.08127 | 41249 ft | 478 kts | 270° |
| 2026-05-08 13:05 | 54.02399 | -18.19371 | 41251 ft | 477 kts | 270° |
| 2026-05-08 13:06 | 54.02329 | -18.30666 | 41255 ft | 479 kts | 270° |
| 2026-05-08 13:06 | 54.02248 | -18.42022 | 41260 ft | 480 kts | 270° |
| 2026-05-08 13:07 | 54.02156 | -18.53389 | 41260 ft | 481 kts | 270° |
| 2026-05-08 13:07 | 54.02052 | -18.64766 | 41263 ft | 479 kts | 270° |
| 2026-05-08 13:08 | 54.01940 | -18.76087 | 41257 ft | 480 kts | 271° |
| 2026-05-08 13:08 | 54.01815 | -18.87407 | 41261 ft | 480 kts | 270° |
| 2026-05-08 13:09 | 54.01680 | -18.98850 | 41275 ft | 483 kts | 271° |
| 2026-05-08 13:09 | 54.01533 | -19.10196 | 41263 ft | 482 kts | 270° |
| 2026-05-08 13:10 | 54.01376 | -19.21615 | 41260 ft | 484 kts | 270° |
| 2026-05-08 13:10 | 54.01209 | -19.33040 | 41272 ft | 483 kts | 271° |
| 2026-05-08 13:11 | 54.01028 | -19.44516 | 41268 ft | 485 kts | 270° |
| 2026-05-08 13:11 | 54.00838 | -19.55989 | 41278 ft | 485 kts | 270° |
| 2026-05-08 13:12 | 54.00637 | -19.67395 | 41271 ft | 486 kts | 270° |
| 2026-05-08 13:12 | 54.00425 | -19.78881 | 41274 ft | 486 kts | 269° |
| 2026-05-08 13:13 | 54.00200 | -19.90373 | 41280 ft | 486 kts | 270° |
| 2026-05-08 13:13 | 53.99966 | -20.01888 | 41284 ft | 487 kts | 270° |
| 2026-05-08 13:14 | 53.99411 | -20.13393 | 41281 ft | 489 kts | 266° |
| 2026-05-08 13:14 | 53.98640 | -20.24867 | 41292 ft | 489 kts | 265° |
| 2026-05-08 13:15 | 53.97901 | -20.36290 | 41288 ft | 489 kts | 266° |
| 2026-05-08 13:15 | 53.97196 | -20.47779 | 41290 ft | 490 kts | 267° |
| 2026-05-08 13:16 | 53.96495 | -20.59324 | 41296 ft | 491 kts | 266° |
| 2026-05-08 13:16 | 53.95904 | -20.68909 | 41296 ft | 491 kts | 266° |
| 2026-05-08 13:17 | 53.95181 | -20.80438 | 41294 ft | 491 kts | 266° |
| 2026-05-08 13:17 | 53.94445 | -20.91960 | 41296 ft | 491 kts | 266° |
| 2026-05-08 13:18 | 53.93696 | -21.03510 | 41305 ft | 492 kts | 266° |
| 2026-05-08 13:18 | 53.92934 | -21.15089 | 41306 ft | 493 kts | 266° |
| 2026-05-08 13:19 | 53.92162 | -21.26646 | 41309 ft | 493 kts | 266° |
| 2026-05-08 13:19 | 53.91382 | -21.38146 | 41309 ft | 493 kts | 266° |
| 2026-05-08 13:20 | 53.90587 | -21.49706 | 41301 ft | 493 kts | 266° |
| 2026-05-08 13:20 | 53.89779 | -21.61283 | 41312 ft | 494 kts | 266° |
| 2026-05-08 13:21 | 53.88961 | -21.72846 | 41311 ft | 494 kts | 266° |
| 2026-05-08 13:21 | 53.88131 | -21.84412 | 41319 ft | 494 kts | 266° |
| 2026-05-08 13:22 | 53.87295 | -21.95904 | 41322 ft | 494 kts | 266° |
| 2026-05-08 13:22 | 53.86443 | -22.07455 | 41322 ft | 494 kts | 265° |
| 2026-05-08 13:23 | 53.85579 | -22.19020 | 41322 ft | 494 kts | 265° |
| 2026-05-08 13:23 | 53.84706 | -22.30562 | 41322 ft | 494 kts | 265° |
| 2026-05-08 13:24 | 53.83819 | -22.42121 | 41322 ft | 494 kts | 265° |
| 2026-05-08 13:24 | 53.82926 | -22.53598 | 41312 ft | 494 kts | 265° |
| 2026-05-08 13:25 | 53.82010 | -22.65162 | 41327 ft | 495 kts | 265° |
| 2026-05-08 13:25 | 53.81091 | -22.76732 | 41337 ft | 495 kts | 265° |
| 2026-05-08 13:26 | 53.80162 | -22.88295 | 41333 ft | 495 kts | 265° |
| 2026-05-08 13:26 | 53.79221 | -22.99780 | 41340 ft | 495 kts | 265° |
| 2026-05-08 13:27 | 53.78265 | -23.11340 | 41336 ft | 496 kts | 265° |
| 2026-05-08 13:27 | 53.77301 | -23.22906 | 41338 ft | 496 kts | 265° |
| 2026-05-08 13:28 | 53.76322 | -23.34472 | 41337 ft | 496 kts | 265° |
| 2026-05-08 13:28 | 53.75340 | -23.45942 | 41342 ft | 497 kts | 265° |
| 2026-05-08 13:29 | 53.74338 | -23.57498 | 41342 ft | 497 kts | 265° |
| 2026-05-08 13:29 | 53.73324 | -23.69061 | 41346 ft | 497 kts | 265° |
| 2026-05-08 13:30 | 53.72300 | -23.80612 | 41352 ft | 497 kts | 265° |
| 2026-05-08 13:30 | 53.71265 | -23.92154 | 41352 ft | 497 kts | 265° |
| 2026-05-08 13:31 | 53.70225 | -24.03633 | 41350 ft | 497 kts | 265° |
| 2026-05-08 13:31 | 53.69164 | -24.15190 | 41352 ft | 498 kts | 265° |
| 2026-05-08 13:32 | 53.68093 | -24.26742 | 41359 ft | 498 kts | 265° |
| 2026-05-08 13:32 | 53.67012 | -24.38282 | 41358 ft | 498 kts | 265° |
| 2026-05-08 13:33 | 53.65926 | -24.49752 | 41357 ft | 498 kts | 265° |
| 2026-05-08 13:33 | 53.64824 | -24.61267 | 41360 ft | 498 kts | 265° |
| 2026-05-08 13:34 | 53.63709 | -24.72798 | 41359 ft | 498 kts | 265° |
| 2026-05-08 13:34 | 53.62584 | -24.84304 | 41368 ft | 498 kts | 265° |
| 2026-05-08 13:35 | 53.61447 | -24.95813 | 41368 ft | 498 kts | 265° |
| 2026-05-08 13:35 | 53.60299 | -25.07327 | 41370 ft | 498 kts | 265° |
| 2026-05-08 13:36 | 53.59137 | -25.18846 | 41362 ft | 498 kts | 265° |
| 2026-05-08 13:36 | 53.57975 | -25.30268 | 41374 ft | 498 kts | 265° |
| 2026-05-08 13:37 | 53.56794 | -25.41756 | 41377 ft | 498 kts | 265° |
| 2026-05-08 13:37 | 53.55600 | -25.53251 | 41377 ft | 498 kts | 265° |
| 2026-05-08 13:38 | 53.54396 | -25.64743 | 41380 ft | 499 kts | 265° |
| 2026-05-08 13:38 | 53.53186 | -25.76165 | 41385 ft | 499 kts | 265° |
| 2026-05-08 13:39 | 53.51961 | -25.87630 | 41389 ft | 499 kts | 265° |
| 2026-05-08 13:39 | 53.50723 | -25.99112 | 41390 ft | 499 kts | 265° |
| 2026-05-08 13:40 | 53.49475 | -26.10573 | 41392 ft | 499 kts | 264° |
| 2026-05-08 13:40 | 53.48213 | -26.22043 | 41385 ft | 499 kts | 265° |
| 2026-05-08 13:41 | 53.46951 | -26.33415 | 41401 ft | 498 kts | 265° |
| 2026-05-08 13:41 | 53.45672 | -26.44846 | 41400 ft | 498 kts | 264° |
| 2026-05-08 13:42 | 53.44383 | -26.56262 | 41403 ft | 498 kts | 264° |
| 2026-05-08 13:42 | 53.43082 | -26.67675 | 41403 ft | 498 kts | 264° |
| 2026-05-08 13:43 | 53.41769 | -26.79072 | 41407 ft | 496 kts | 264° |
| 2026-05-08 13:43 | 53.40452 | -26.90411 | 41402 ft | 495 kts | 264° |
| 2026-05-08 13:44 | 53.39135 | -27.01661 | 41407 ft | 494 kts | 264° |
| 2026-05-08 13:44 | 53.37800 | -27.12976 | 41411 ft | 495 kts | 264° |
| 2026-05-08 13:45 | 53.36454 | -27.24273 | 41414 ft | 495 kts | 264° |
| 2026-05-08 13:45 | 53.35097 | -27.35576 | 41416 ft | 495 kts | 264° |
| 2026-05-08 13:46 | 53.33730 | -27.46858 | 41419 ft | 495 kts | 264° |
| 2026-05-08 13:46 | 53.32350 | -27.58153 | 41422 ft | 495 kts | 264° |
| 2026-05-08 13:47 | 53.30961 | -27.69421 | 41424 ft | 494 kts | 264° |
| 2026-05-08 13:47 | 53.29576 | -27.80568 | 41423 ft | 491 kts | 264° |
| 2026-05-08 13:48 | 53.28177 | -27.91738 | 41422 ft | 490 kts | 264° |
| 2026-05-08 13:48 | 53.26768 | -28.02905 | 41430 ft | 490 kts | 264° |
| 2026-05-08 13:49 | 53.25351 | -28.14052 | 41435 ft | 490 kts | 264° |
| 2026-05-08 13:49 | 53.23930 | -28.25128 | 41423 ft | 490 kts | 263° |
| 2026-05-08 13:50 | 53.22491 | -28.36258 | 41439 ft | 489 kts | 263° |
| 2026-05-08 13:50 | 53.21043 | -28.47366 | 41437 ft | 489 kts | 263° |
| 2026-05-08 13:51 | 53.19588 | -28.58449 | 41440 ft | 489 kts | 263° |
| 2026-05-08 13:51 | 53.18128 | -28.69479 | 41446 ft | 489 kts | 263° |
| 2026-05-08 13:52 | 53.16651 | -28.80557 | 41454 ft | 489 kts | 263° |
| 2026-05-08 13:52 | 53.15166 | -28.91610 | 41444 ft | 489 kts | 263° |
| 2026-05-08 13:53 | 53.13670 | -29.02655 | 41447 ft | 489 kts | 263° |
| 2026-05-08 13:53 | 53.12164 | -29.13699 | 41448 ft | 489 kts | 263° |
| 2026-05-08 13:54 | 53.10645 | -29.24748 | 41437 ft | 489 kts | 262° |
| 2026-05-08 13:54 | 53.09118 | -29.35779 | 41458 ft | 488 kts | 262° |
| 2026-05-08 13:55 | 53.07582 | -29.46793 | 41458 ft | 488 kts | 262° |
| 2026-05-08 13:56 | 53.05271 | -29.63214 | 41466 ft | 488 kts | 262° |
| 2026-05-08 13:56 | 53.03709 | -29.74208 | 41459 ft | 488 kts | 262° |
| 2026-05-08 13:57 | 53.02137 | -29.85196 | 41461 ft | 488 kts | 262° |
| 2026-05-08 13:57 | 53.00557 | -29.96163 | 41468 ft | 488 kts | 262° |
| 2026-05-08 13:58 | 52.98955 | -30.07119 | 41471 ft | 489 kts | 261° |
| 2026-05-08 13:58 | 52.97290 | -30.18073 | 41476 ft | 489 kts | 261° |
| 2026-05-08 13:59 | 52.95620 | -30.28944 | 41464 ft | 489 kts | 261° |
| 2026-05-08 13:59 | 52.93940 | -30.39863 | 41476 ft | 489 kts | 261° |
| 2026-05-08 14:00 | 52.92255 | -30.50770 | 41485 ft | 489 kts | 261° |
| 2026-05-08 14:00 | 52.90559 | -30.61688 | 41485 ft | 489 kts | 261° |
| 2026-05-08 14:01 | 52.88852 | -30.72597 | 41478 ft | 489 kts | 261° |
| 2026-05-08 14:01 | 52.87146 | -30.83425 | 41482 ft | 488 kts | 261° |
| 2026-05-08 14:02 | 52.85419 | -30.94307 | 41481 ft | 488 kts | 261° |
| 2026-05-08 14:02 | 52.83686 | -31.05167 | 41481 ft | 488 kts | 261° |
| 2026-05-08 14:03 | 52.81944 | -31.16007 | 41485 ft | 488 kts | 261° |
| 2026-05-08 14:03 | 52.80190 | -31.26855 | 41474 ft | 488 kts | 261° |
| 2026-05-08 14:04 | 52.78427 | -31.37687 | 41484 ft | 487 kts | 261° |
| 2026-05-08 14:04 | 52.76670 | -31.48415 | 41483 ft | 487 kts | 260° |
| 2026-05-08 14:05 | 52.74890 | -31.59220 | 41489 ft | 487 kts | 260° |
| 2026-05-08 14:05 | 52.73402 | -31.68195 | 41487 ft | 487 kts | 260° |
| 2026-05-08 14:06 | 52.71601 | -31.78992 | 41490 ft | 486 kts | 260° |
| 2026-05-08 14:06 | 52.69800 | -31.89725 | 41492 ft | 486 kts | 260° |
| 2026-05-08 14:07 | 52.67989 | -32.00454 | 41492 ft | 485 kts | 260° |
| 2026-05-08 14:07 | 52.66166 | -32.11181 | 41495 ft | 485 kts | 260° |
| 2026-05-08 14:08 | 52.64352 | -32.21802 | 41494 ft | 485 kts | 260° |
| 2026-05-08 14:08 | 52.62513 | -32.32496 | 41495 ft | 485 kts | 260° |
| 2026-05-08 14:09 | 52.60666 | -32.43175 | 41496 ft | 485 kts | 260° |
| 2026-05-08 14:09 | 52.58809 | -32.53846 | 41497 ft | 485 kts | 260° |
| 2026-05-08 14:10 | 52.56941 | -32.64516 | 41497 ft | 485 kts | 260° |
| 2026-05-08 14:10 | 52.55063 | -32.75172 | 41497 ft | 485 kts | 260° |
| 2026-05-08 14:11 | 52.53191 | -32.85738 | 41497 ft | 484 kts | 260° |
| 2026-05-08 14:11 | 52.51299 | -32.96358 | 41498 ft | 484 kts | 259° |
| 2026-05-08 14:12 | 52.49398 | -33.06965 | 41496 ft | 484 kts | 259° |
| 2026-05-08 14:12 | 52.47486 | -33.17569 | 41478 ft | 484 kts | 259° |
| 2026-05-08 14:13 | 52.45569 | -33.28129 | 41498 ft | 483 kts | 259° |
| 2026-05-08 14:13 | 52.43641 | -33.38696 | 41498 ft | 483 kts | 259° |
| 2026-05-08 14:14 | 52.41716 | -33.49190 | 41498 ft | 483 kts | 259° |
| 2026-05-08 14:14 | 52.39775 | -33.59712 | 41498 ft | 483 kts | 259° |
| 2026-05-08 14:15 | 52.37824 | -33.70224 | 41495 ft | 482 kts | 259° |
| 2026-05-08 14:15 | 52.35872 | -33.80680 | 41496 ft | 480 kts | 259° |
| 2026-05-08 14:16 | 52.33921 | -33.91078 | 41486 ft | 480 kts | 259° |
| 2026-05-08 14:16 | 52.31949 | -34.01531 | 41492 ft | 480 kts | 259° |
| 2026-05-08 14:17 | 52.29967 | -34.11977 | 41466 ft | 480 kts | 259° |
| 2026-05-08 14:17 | 52.27980 | -34.22378 | 41490 ft | 478 kts | 259° |
| 2026-05-08 14:18 | 52.26002 | -34.32687 | 41491 ft | 477 kts | 259° |
| 2026-05-08 14:18 | 52.24004 | -34.43052 | 41490 ft | 477 kts | 259° |
| 2026-05-08 14:19 | 52.21999 | -34.53393 | 41490 ft | 478 kts | 258° |
| 2026-05-08 14:19 | 52.20003 | -34.63626 | 41481 ft | 477 kts | 258° |
| 2026-05-08 14:20 | 52.17977 | -34.73961 | 41486 ft | 477 kts | 258° |
| 2026-05-08 14:20 | 52.15948 | -34.84257 | 41482 ft | 477 kts | 258° |
| 2026-05-08 14:21 | 52.13908 | -34.94553 | 41480 ft | 477 kts | 258° |
| 2026-05-08 14:21 | 52.11860 | -35.04830 | 41452 ft | 477 kts | 258° |
| 2026-05-08 14:22 | 52.09804 | -35.15099 | 41477 ft | 478 kts | 258° |
| 2026-05-08 14:22 | 52.07749 | -35.25310 | 41478 ft | 478 kts | 258° |
| 2026-05-08 14:23 | 52.05669 | -35.35585 | 41470 ft | 478 kts | 258° |
| 2026-05-08 14:23 | 52.03585 | -35.45829 | 41472 ft | 478 kts | 258° |
| 2026-05-08 14:24 | 52.01490 | -35.56073 | 41461 ft | 478 kts | 258° |
| 2026-05-08 14:24 | 51.99382 | -35.66332 | 41468 ft | 479 kts | 258° |
| 2026-05-08 14:25 | 51.97266 | -35.76574 | 41463 ft | 479 kts | 258° |
| 2026-05-08 14:25 | 51.95152 | -35.86755 | 41463 ft | 479 kts | 258° |
| 2026-05-08 14:26 | 51.93014 | -35.96995 | 41429 ft | 479 kts | 258° |
| 2026-05-08 14:26 | 51.90869 | -36.07224 | 41455 ft | 480 kts | 258° |
| 2026-05-08 14:27 | 51.88709 | -36.17467 | 41445 ft | 480 kts | 258° |
| 2026-05-08 14:27 | 51.86540 | -36.27699 | 41447 ft | 481 kts | 258° |
| 2026-05-08 14:28 | 51.84360 | -36.37934 | 41448 ft | 481 kts | 258° |
| 2026-05-08 14:28 | 51.82186 | -36.48090 | 41443 ft | 481 kts | 258° |
| 2026-05-08 14:29 | 51.79987 | -36.58312 | 41447 ft | 481 kts | 258° |
| 2026-05-08 14:29 | 51.77779 | -36.68522 | 41446 ft | 482 kts | 258° |
| 2026-05-08 14:30 | 51.75558 | -36.78741 | 41444 ft | 482 kts | 258° |
| 2026-05-08 14:30 | 51.73328 | -36.88955 | 41444 ft | 482 kts | 258° |
| 2026-05-08 14:31 | 51.71091 | -36.99147 | 41439 ft | 482 kts | 258° |
| 2026-05-08 14:31 | 51.68855 | -37.09285 | 41438 ft | 482 kts | 258° |
| 2026-05-08 14:32 | 51.65464 | -37.24568 | 41436 ft | 483 kts | 258° |
| 2026-05-08 14:32 | 51.63192 | -37.34745 | 41413 ft | 483 kts | 258° |
| 2026-05-08 14:33 | 51.60913 | -37.44903 | 41434 ft | 483 kts | 257° |
| 2026-05-08 14:33 | 51.58623 | -37.55059 | 41425 ft | 483 kts | 257° |
| 2026-05-08 14:34 | 51.56341 | -37.65137 | 41426 ft | 483 kts | 257° |
| 2026-05-08 14:34 | 51.54031 | -37.75282 | 41423 ft | 483 kts | 257° |
| 2026-05-08 14:35 | 51.51714 | -37.85419 | 41414 ft | 483 kts | 257° |
| 2026-05-08 14:35 | 51.49386 | -37.95546 | 41422 ft | 483 kts | 257° |
| 2026-05-08 14:36 | 51.47058 | -38.05632 | 41416 ft | 483 kts | 257° |
| 2026-05-08 14:36 | 51.44708 | -38.15759 | 41400 ft | 483 kts | 257° |
| 2026-05-08 14:37 | 51.42371 | -38.25783 | 41400 ft | 482 kts | 256° |
| 2026-05-08 14:37 | 51.40020 | -38.35825 | 41409 ft | 481 kts | 256° |
| 2026-05-08 14:38 | 51.37662 | -38.45855 | 41403 ft | 481 kts | 256° |
| 2026-05-08 14:38 | 51.35294 | -38.55874 | 41403 ft | 481 kts | 256° |
| 2026-05-08 14:39 | 51.32914 | -38.65898 | 41398 ft | 481 kts | 256° |
| 2026-05-08 14:39 | 51.30547 | -38.75815 | 41394 ft | 480 kts | 255° |
| 2026-05-08 14:40 | 51.28159 | -38.85772 | 41395 ft | 479 kts | 255° |
| 2026-05-08 14:40 | 51.25761 | -38.95723 | 41384 ft | 480 kts | 255° |
| 2026-05-08 14:41 | 51.23352 | -39.05661 | 41384 ft | 479 kts | 255° |
| 2026-05-08 14:41 | 51.20945 | -39.15580 | 41382 ft | 479 kts | 255° |
| 2026-05-08 14:42 | 51.18544 | -39.25432 | 41384 ft | 478 kts | 255° |
| 2026-05-08 14:42 | 51.16120 | -39.35328 | 41378 ft | 478 kts | 255° |
| 2026-05-08 14:43 | 51.13704 | -39.45140 | 41371 ft | 479 kts | 255° |
| 2026-05-08 14:43 | 51.11264 | -39.55006 | 41351 ft | 478 kts | 254° |
| 2026-05-08 14:44 | 51.08819 | -39.64851 | 41368 ft | 479 kts | 254° |
| 2026-05-08 14:44 | 51.06359 | -39.74706 | 41360 ft | 479 kts | 254° |
| 2026-05-08 14:45 | 51.03891 | -39.84552 | 41356 ft | 479 kts | 254° |
| 2026-05-08 14:45 | 51.01435 | -39.94308 | 41357 ft | 479 kts | 254° |
| 2026-05-08 14:46 | 50.99367 | -40.04285 | 41350 ft | 473 kts | 261° |
| 2026-05-08 14:46 | 50.97782 | -40.14403 | 41354 ft | 470 kts | 262° |
| 2026-05-08 14:47 | 50.96271 | -40.24495 | 41357 ft | 470 kts | 262° |
| 2026-05-08 14:47 | 50.94751 | -40.34570 | 41348 ft | 470 kts | 262° |
| 2026-05-08 14:48 | 50.93207 | -40.44655 | 41347 ft | 470 kts | 262° |
| 2026-05-08 14:48 | 50.91650 | -40.54714 | 41344 ft | 469 kts | 262° |
| 2026-05-08 14:49 | 50.90097 | -40.64685 | 41341 ft | 468 kts | 261° |
| 2026-05-08 14:49 | 50.88527 | -40.74702 | 41332 ft | 468 kts | 261° |
| 2026-05-08 14:50 | 50.86950 | -40.84712 | 41331 ft | 468 kts | 261° |
| 2026-05-08 14:50 | 50.85364 | -40.94708 | 41318 ft | 468 kts | 261° |
| 2026-05-08 14:51 | 50.83772 | -41.04684 | 41325 ft | 466 kts | 261° |
| 2026-05-08 14:51 | 50.82175 | -41.14632 | 41325 ft | 465 kts | 261° |
| 2026-05-08 14:52 | 50.79782 | -41.29437 | 41316 ft | 463 kts | 261° |
| 2026-05-08 14:53 | 50.78178 | -41.39282 | 41316 ft | 462 kts | 261° |
| 2026-05-08 14:53 | 50.76569 | -41.49107 | 41317 ft | 462 kts | 260° |
| 2026-05-08 14:54 | 50.74950 | -41.58933 | 41311 ft | 462 kts | 260° |
| 2026-05-08 14:54 | 50.73324 | -41.68745 | 41306 ft | 462 kts | 260° |
| 2026-05-08 14:55 | 50.71688 | -41.78559 | 41302 ft | 462 kts | 260° |
| 2026-05-08 14:55 | 50.70322 | -41.86709 | 41303 ft | 462 kts | 260° |
| 2026-05-08 14:56 | 50.69174 | -41.93533 | 41291 ft | 462 kts | 260° |
| 2026-05-08 14:56 | 50.67544 | -42.03162 | 41297 ft | 460 kts | 260° |
| 2026-05-08 14:57 | 50.65887 | -42.12898 | 41291 ft | 459 kts | 259° |
| 2026-05-08 14:57 | 50.64235 | -42.22559 | 41289 ft | 459 kts | 259° |
| 2026-05-08 14:58 | 50.62561 | -42.32295 | 41283 ft | 459 kts | 259° |
| 2026-05-08 14:58 | 50.60883 | -42.42002 | 41282 ft | 459 kts | 259° |
| 2026-05-08 14:59 | 50.59209 | -42.51627 | 41274 ft | 457 kts | 259° |
| 2026-05-08 14:59 | 50.56673 | -42.66111 | 41276 ft | 457 kts | 259° |
| 2026-05-08 15:00 | 50.54981 | -42.75708 | 41269 ft | 457 kts | 259° |
| 2026-05-08 15:00 | 50.53265 | -42.85397 | 41251 ft | 457 kts | 259° |
| 2026-05-08 15:01 | 50.51565 | -42.94941 | 41263 ft | 455 kts | 258° |
| 2026-05-08 15:01 | 50.49848 | -43.04521 | 41257 ft | 455 kts | 258° |
| 2026-05-08 15:02 | 50.48124 | -43.14098 | 41257 ft | 455 kts | 258° |
| 2026-05-08 15:02 | 50.46403 | -43.23612 | 41251 ft | 455 kts | 258° |
| 2026-05-08 15:03 | 50.44665 | -43.33166 | 41239 ft | 455 kts | 258° |
| 2026-05-08 15:03 | 50.42921 | -43.42696 | 41252 ft | 453 kts | 258° |
| 2026-05-08 15:04 | 50.41178 | -43.52178 | 41239 ft | 451 kts | 257° |
| 2026-05-08 15:04 | 50.39434 | -43.61612 | 41234 ft | 450 kts | 257° |
| 2026-05-08 15:05 | 50.37687 | -43.71021 | 41235 ft | 450 kts | 257° |
| 2026-05-08 15:05 | 50.35940 | -43.80382 | 41221 ft | 450 kts | 257° |
| 2026-05-08 15:06 | 50.34182 | -43.89751 | 41232 ft | 447 kts | 257° |
| 2026-05-08 15:06 | 50.32421 | -43.99086 | 41220 ft | 447 kts | 257° |
| 2026-05-08 15:07 | 50.30653 | -44.08416 | 41219 ft | 447 kts | 257° |
| 2026-05-08 15:07 | 50.28876 | -44.17747 | 41210 ft | 447 kts | 257° |
| 2026-05-08 15:08 | 50.27395 | -44.25490 | 41214 ft | 447 kts | 256° |
| 2026-05-08 15:08 | 50.25320 | -44.36290 | 41194 ft | 446 kts | 256° |
| 2026-05-08 15:09 | 50.23522 | -44.45588 | 41189 ft | 446 kts | 256° |
| 2026-05-08 15:09 | 50.21723 | -44.54849 | 41189 ft | 446 kts | 256° |
| 2026-05-08 15:10 | 50.19916 | -44.64113 | 41195 ft | 445 kts | 255° |
| 2026-05-08 15:10 | 50.18117 | -44.73284 | 41177 ft | 444 kts | 255° |
| 2026-05-08 15:11 | 50.16302 | -44.82497 | 41175 ft | 444 kts | 255° |
| 2026-05-08 15:11 | 50.14481 | -44.91692 | 41167 ft | 444 kts | 255° |
| 2026-05-08 15:12 | 50.12651 | -45.00893 | 41165 ft | 444 kts | 255° |
| 2026-05-08 15:12 | 50.10814 | -45.10086 | 41157 ft | 444 kts | 255° |
| 2026-05-08 15:13 | 50.08972 | -45.19260 | 41166 ft | 444 kts | 255° |
| 2026-05-08 15:13 | 50.07134 | -45.28371 | 41151 ft | 443 kts | 255° |
| 2026-05-08 15:14 | 50.05279 | -45.37520 | 41145 ft | 442 kts | 254° |
| 2026-05-08 15:14 | 50.03421 | -45.46644 | 41133 ft | 442 kts | 254° |
| 2026-05-08 15:15 | 50.01554 | -45.55770 | 41149 ft | 442 kts | 254° |
| 2026-05-08 15:15 | 49.99680 | -45.64889 | 41139 ft | 442 kts | 254° |
| 2026-05-08 15:16 | 49.97816 | -45.73925 | 41134 ft | 439 kts | 253° |
| 2026-05-08 15:16 | 49.95944 | -45.82949 | 41132 ft | 438 kts | 253° |
| 2026-05-08 15:17 | 49.94070 | -45.91942 | 41117 ft | 438 kts | 253° |
| 2026-05-08 15:17 | 49.92189 | -46.00929 | 41109 ft | 438 kts | 253° |
| 2026-05-08 15:18 | 49.90301 | -46.09915 | 41098 ft | 438 kts | 253° |
| 2026-05-08 15:18 | 49.88402 | -46.18907 | 41093 ft | 438 kts | 253° |
| 2026-05-08 15:19 | 49.86497 | -46.27889 | 41108 ft | 438 kts | 253° |
| 2026-05-08 15:19 | 49.84600 | -46.36798 | 41109 ft | 438 kts | 253° |
| 2026-05-08 15:20 | 49.82680 | -46.45770 | 41103 ft | 438 kts | 253° |
| 2026-05-08 15:20 | 49.80759 | -46.54713 | 41091 ft | 438 kts | 252° |
| 2026-05-08 15:21 | 49.78828 | -46.63659 | 41081 ft | 437 kts | 252° |
| 2026-05-08 15:21 | 49.76901 | -46.72551 | 41079 ft | 436 kts | 252° |
| 2026-05-08 15:22 | 49.74967 | -46.81432 | 41068 ft | 435 kts | 251° |
| 2026-05-08 15:22 | 49.73045 | -46.90224 | 41085 ft | 434 kts | 251° |
| 2026-05-08 15:23 | 49.71103 | -46.99064 | 41053 ft | 434 kts | 251° |
| 2026-05-08 15:23 | 49.69157 | -47.07890 | 41048 ft | 434 kts | 251° |
| 2026-05-08 15:24 | 49.67204 | -47.16712 | 41041 ft | 434 kts | 251° |
| 2026-05-08 15:24 | 49.65241 | -47.25536 | 41040 ft | 434 kts | 251° |
| 2026-05-08 15:25 | 49.63273 | -47.34350 | 41048 ft | 434 kts | 251° |
| 2026-05-08 15:25 | 49.61299 | -47.43150 | 41038 ft | 434 kts | 251° |
| 2026-05-08 15:26 | 49.59317 | -47.51955 | 41036 ft | 435 kts | 250° |
| 2026-05-08 15:26 | 49.57325 | -47.60764 | 41034 ft | 435 kts | 250° |
| 2026-05-08 15:27 | 49.55323 | -47.69575 | 41028 ft | 435 kts | 250° |
| 2026-05-08 15:27 | 49.53328 | -47.78325 | 41011 ft | 435 kts | 250° |
| 2026-05-08 15:28 | 49.51319 | -47.87102 | 41005 ft | 435 kts | 250° |
| 2026-05-08 15:28 | 49.49303 | -47.95869 | 41003 ft | 434 kts | 249° |
| 2026-05-08 15:29 | 49.47286 | -48.04607 | 40992 ft | 434 kts | 249° |
| 2026-05-08 15:29 | 49.45261 | -48.13343 | 40992 ft | 433 kts | 249° |
| 2026-05-08 15:30 | 49.43239 | -48.22026 | 40980 ft | 433 kts | 249° |
| 2026-05-08 15:30 | 49.41204 | -48.30734 | 40978 ft | 433 kts | 249° |
| 2026-05-08 15:31 | 49.39160 | -48.39449 | 40972 ft | 433 kts | 249° |
| 2026-05-08 15:31 | 49.37112 | -48.48141 | 40972 ft | 433 kts | 249° |
| 2026-05-08 15:32 | 49.35067 | -48.56787 | 40965 ft | 433 kts | 249° |
| 2026-05-08 15:32 | 49.33007 | -48.65461 | 40953 ft | 432 kts | 249° |
| 2026-05-08 15:33 | 49.30941 | -48.74125 | 40946 ft | 433 kts | 249° |
| 2026-05-08 15:33 | 49.28870 | -48.82779 | 40961 ft | 431 kts | 248° |
| 2026-05-08 15:34 | 49.26805 | -48.91371 | 40945 ft | 428 kts | 248° |
| 2026-05-08 15:34 | 49.24757 | -48.99860 | 40942 ft | 428 kts | 248° |
| 2026-05-08 15:35 | 49.22688 | -49.08405 | 40926 ft | 428 kts | 248° |
| 2026-05-08 15:35 | 49.20610 | -49.16948 | 40927 ft | 428 kts | 248° |
| 2026-05-08 15:36 | 49.18884 | -49.24026 | 40916 ft | 427 kts | 247° |
| 2026-05-08 15:36 | 49.16451 | -49.33961 | 40915 ft | 427 kts | 247° |
| 2026-05-08 15:37 | 49.14375 | -49.42400 | 40900 ft | 427 kts | 247° |
| 2026-05-08 15:37 | 49.12277 | -49.50897 | 40897 ft | 427 kts | 247° |
| 2026-05-08 15:38 | 49.10177 | -49.59370 | 40891 ft | 427 kts | 247° |
| 2026-05-08 15:38 | 49.08072 | -49.67832 | 40893 ft | 426 kts | 246° |
| 2026-05-08 15:39 | 49.05964 | -49.76274 | 40884 ft | 426 kts | 246° |
| 2026-05-08 15:39 | 49.03850 | -49.84709 | 40888 ft | 425 kts | 246° |
| 2026-05-08 15:40 | 49.01739 | -49.93099 | 40875 ft | 424 kts | 246° |
| 2026-05-08 15:40 | 48.99623 | -50.01485 | 40876 ft | 424 kts | 246° |
| 2026-05-08 15:41 | 48.97588 | -50.09870 | 40873 ft | 425 kts | 246° |
| 2026-05-08 15:41 | 48.95578 | -50.18342 | 40873 ft | 426 kts | 246° |
| 2026-05-08 15:42 | 48.93548 | -50.26816 | 40864 ft | 426 kts | 246° |
| 2026-05-08 15:42 | 48.91848 | -50.33849 | 40864 ft | 426 kts | 246° |
| 2026-05-08 15:43 | 48.89793 | -50.42301 | 40859 ft | 426 kts | 246° |
| 2026-05-08 15:43 | 48.87735 | -50.50730 | 40859 ft | 426 kts | 246° |
| 2026-05-08 15:44 | 48.85678 | -50.59125 | 40846 ft | 426 kts | 246° |
| 2026-05-08 15:44 | 48.83604 | -50.67559 | 40846 ft | 426 kts | 246° |
| 2026-05-08 15:45 | 48.81524 | -50.75986 | 40842 ft | 426 kts | 246° |
| 2026-05-08 15:45 | 48.79441 | -50.84393 | 40843 ft | 426 kts | 245° |
| 2026-05-08 15:46 | 48.77348 | -50.92809 | 40840 ft | 426 kts | 245° |
| 2026-05-08 15:46 | 48.75267 | -51.01146 | 40830 ft | 425 kts | 245° |
| 2026-05-08 15:47 | 48.73166 | -51.09531 | 40825 ft | 425 kts | 245° |
| 2026-05-08 15:47 | 48.71061 | -51.17903 | 40828 ft | 425 kts | 245° |
| 2026-05-08 15:48 | 48.67894 | -51.30436 | 40824 ft | 425 kts | 245° |
| 2026-05-08 15:49 | 48.65788 | -51.38733 | 40816 ft | 425 kts | 244° |
| 2026-05-08 15:49 | 48.63662 | -51.47076 | 40811 ft | 425 kts | 244° |
| 2026-05-08 15:50 | 48.61530 | -51.55415 | 40808 ft | 425 kts | 244° |
| 2026-05-08 15:50 | 48.59390 | -51.63752 | 40806 ft | 425 kts | 244° |
| 2026-05-08 15:51 | 48.57245 | -51.72079 | 40811 ft | 425 kts | 244° |
| 2026-05-08 15:51 | 48.55108 | -51.80347 | 40790 ft | 425 kts | 244° |
| 2026-05-08 15:52 | 48.52947 | -51.88677 | 40794 ft | 426 kts | 244° |
| 2026-05-08 15:52 | 48.50781 | -51.96995 | 40787 ft | 426 kts | 244° |
| 2026-05-08 15:53 | 48.48647 | -52.05350 | 40785 ft | 427 kts | 245° |
| 2026-05-08 15:53 | 48.46645 | -52.13788 | 40771 ft | 427 kts | 245° |
| 2026-05-08 15:54 | 48.44668 | -52.22165 | 40778 ft | 427 kts | 245° |
| 2026-05-08 15:54 | 48.42954 | -52.29323 | 40768 ft | 427 kts | 245° |
| 2026-05-08 15:55 | 48.40920 | -52.37728 | 40769 ft | 427 kts | 245° |
| 2026-05-08 15:55 | 48.37852 | -52.50320 | 40747 ft | 427 kts | 245° |
| 2026-05-08 15:56 | 48.35797 | -52.58720 | 40747 ft | 427 kts | 244° |
| 2026-05-08 15:56 | 48.33739 | -52.67102 | 40738 ft | 427 kts | 244° |
| 2026-05-08 15:57 | 48.31671 | -52.75493 | 40738 ft | 428 kts | 244° |
| 2026-05-08 15:57 | 48.29613 | -52.83816 | 40719 ft | 427 kts | 244° |
| 2026-05-08 15:58 | 48.27535 | -52.92185 | 40719 ft | 427 kts | 244° |
| 2026-05-08 15:58 | 48.25449 | -53.00554 | 40716 ft | 427 kts | 244° |
| 2026-05-08 15:59 | 48.23364 | -53.08889 | 40717 ft | 427 kts | 244° |
| 2026-05-08 15:59 | 48.21271 | -53.17230 | 40708 ft | 426 kts | 244° |
| 2026-05-08 16:00 | 48.19176 | -53.25543 | 40710 ft | 426 kts | 244° |
| 2026-05-08 16:00 | 48.17076 | -53.33844 | 40702 ft | 426 kts | 244° |
| 2026-05-08 16:01 | 48.14972 | -53.42133 | 40700 ft | 426 kts | 244° |
| 2026-05-08 16:01 | 48.12876 | -53.50364 | 40701 ft | 424 kts | 243° |
| 2026-05-08 16:02 | 48.10776 | -53.58580 | 40691 ft | 421 kts | 243° |
| 2026-05-08 16:02 | 48.08678 | -53.66753 | 40690 ft | 421 kts | 243° |
| 2026-05-08 16:03 | 48.06582 | -53.74886 | 40689 ft | 420 kts | 243° |
| 2026-05-08 16:03 | 48.04475 | -53.83035 | 40682 ft | 420 kts | 243° |
| 2026-05-08 16:04 | 48.02357 | -53.91202 | 40691 ft | 421 kts | 243° |
| 2026-05-08 16:04 | 48.00232 | -53.99363 | 40685 ft | 422 kts | 243° |
| 2026-05-08 16:05 | 47.98113 | -54.07473 | 40686 ft | 422 kts | 243° |
| 2026-05-08 16:05 | 47.95971 | -54.15643 | 40685 ft | 422 kts | 243° |
| 2026-05-08 16:06 | 47.93828 | -54.23791 | 40698 ft | 422 kts | 243° |
| 2026-05-08 16:06 | 47.91676 | -54.31944 | 40689 ft | 422 kts | 242° |
| 2026-05-08 16:07 | 47.89530 | -54.40049 | 40695 ft | 422 kts | 242° |
| 2026-05-08 16:07 | 47.87369 | -54.48178 | 40692 ft | 422 kts | 242° |
| 2026-05-08 16:08 | 47.85200 | -54.56305 | 40691 ft | 422 kts | 242° |
| 2026-05-08 16:08 | 47.83030 | -54.64411 | 40691 ft | 422 kts | 242° |
| 2026-05-08 16:09 | 47.81222 | -54.71143 | 40693 ft | 421 kts | 242° |
| 2026-05-08 16:09 | 47.78668 | -54.80619 | 40692 ft | 421 kts | 242° |
| 2026-05-08 16:10 | 47.76482 | -54.88703 | 40680 ft | 421 kts | 242° |
| 2026-05-08 16:10 | 47.74286 | -54.96793 | 40680 ft | 421 kts | 242° |
| 2026-05-08 16:11 | 47.72104 | -55.04808 | 40671 ft | 421 kts | 242° |
| 2026-05-08 16:11 | 47.69899 | -55.12873 | 40672 ft | 421 kts | 242° |
| 2026-05-08 16:12 | 47.67694 | -55.20918 | 40630 ft | 419 kts | 241° |
| 2026-05-08 16:12 | 47.65495 | -55.28916 | 40629 ft | 417 kts | 241° |
| 2026-05-08 16:13 | 47.63297 | -55.36876 | 40616 ft | 417 kts | 241° |
| 2026-05-08 16:13 | 47.61091 | -55.44837 | 40614 ft | 417 kts | 241° |
| 2026-05-08 16:14 | 47.58884 | -55.52776 | 40576 ft | 417 kts | 241° |
| 2026-05-08 16:14 | 47.56669 | -55.60720 | 40580 ft | 417 kts | 241° |
| 2026-05-08 16:15 | 47.54450 | -55.68651 | 40570 ft | 416 kts | 241° |
| 2026-05-08 16:15 | 47.52243 | -55.76515 | 40570 ft | 416 kts | 241° |
| 2026-05-08 16:16 | 47.50014 | -55.84422 | 40557 ft | 416 kts | 241° |
| 2026-05-08 16:16 | 47.47779 | -55.92325 | 40560 ft | 416 kts | 241° |
| 2026-05-08 16:17 | 47.45921 | -55.98888 | 40614 ft | 417 kts | 240° |
| 2026-05-08 16:17 | 47.43304 | -56.08100 | 40562 ft | 415 kts | 240° |
| 2026-05-08 16:18 | 47.41064 | -56.15954 | 40582 ft | 415 kts | 240° |
| 2026-05-08 16:18 | 47.38815 | -56.23809 | 40580 ft | 415 kts | 240° |
| 2026-05-08 16:19 | 47.36564 | -56.31649 | 40586 ft | 415 kts | 240° |
| 2026-05-08 16:19 | 47.34320 | -56.39433 | 40590 ft | 415 kts | 240° |
| 2026-05-08 16:20 | 47.32053 | -56.47267 | 40604 ft | 415 kts | 240° |
| 2026-05-08 16:20 | 47.29781 | -56.55101 | 40602 ft | 415 kts | 240° |
| 2026-05-08 16:21 | 47.27508 | -56.62914 | 40610 ft | 415 kts | 240° |
| 2026-05-08 16:21 | 47.25233 | -56.70717 | 40611 ft | 415 kts | 240° |
| 2026-05-08 16:22 | 47.22947 | -56.78532 | 40619 ft | 415 kts | 240° |
| 2026-05-08 16:22 | 47.20660 | -56.86324 | 40627 ft | 415 kts | 239° |
| 2026-05-08 16:23 | 47.18364 | -56.94118 | 40638 ft | 415 kts | 239° |
| 2026-05-08 16:23 | 47.16074 | -57.01866 | 40638 ft | 415 kts | 239° |
| 2026-05-08 16:24 | 47.13768 | -57.09644 | 40639 ft | 415 kts | 239° |
| 2026-05-08 16:24 | 47.11454 | -57.17422 | 40648 ft | 415 kts | 239° |
| 2026-05-08 16:25 | 47.09130 | -57.25209 | 40633 ft | 416 kts | 239° |
| 2026-05-08 16:25 | 47.06799 | -57.32995 | 40633 ft | 417 kts | 239° |
| 2026-05-08 16:26 | 47.04478 | -57.40729 | 40634 ft | 417 kts | 239° |
| 2026-05-08 16:26 | 47.02136 | -57.48507 | 40634 ft | 417 kts | 239° |
| 2026-05-08 16:27 | 46.99791 | -57.56270 | 40642 ft | 417 kts | 239° |
| 2026-05-08 16:27 | 46.97431 | -57.64060 | 40641 ft | 419 kts | 239° |
| 2026-05-08 16:28 | 46.95053 | -57.71876 | 40641 ft | 420 kts | 239° |
| 2026-05-08 16:28 | 46.92689 | -57.79629 | 40642 ft | 420 kts | 239° |
| 2026-05-08 16:29 | 46.90302 | -57.87435 | 40647 ft | 420 kts | 239° |
| 2026-05-08 16:29 | 46.87912 | -57.95226 | 40653 ft | 420 kts | 239° |
| 2026-05-08 16:30 | 46.85512 | -58.03021 | 40647 ft | 421 kts | 239° |
| 2026-05-08 16:30 | 46.83098 | -58.10841 | 40650 ft | 421 kts | 239° |
| 2026-05-08 16:31 | 46.81093 | -58.17318 | 40647 ft | 421 kts | 238° |
| 2026-05-08 16:31 | 46.78276 | -58.26391 | 40647 ft | 421 kts | 238° |
| 2026-05-08 16:32 | 46.76261 | -58.32856 | 40645 ft | 421 kts | 239° |
| 2026-05-08 16:32 | 46.73826 | -58.40639 | 40664 ft | 421 kts | 239° |
| 2026-05-08 16:33 | 46.71389 | -58.48421 | 40655 ft | 422 kts | 239° |
| 2026-05-08 16:33 | 46.68952 | -58.56177 | 40655 ft | 422 kts | 239° |
| 2026-05-08 16:34 | 46.66499 | -58.63960 | 40655 ft | 422 kts | 239° |
| 2026-05-08 16:34 | 46.64044 | -58.71722 | 40657 ft | 422 kts | 239° |
| 2026-05-08 16:35 | 46.61584 | -58.79477 | 40660 ft | 422 kts | 239° |
| 2026-05-08 16:35 | 46.59115 | -58.87237 | 40660 ft | 422 kts | 239° |
| 2026-05-08 16:36 | 46.56642 | -58.94984 | 40667 ft | 422 kts | 239° |
| 2026-05-08 16:36 | 46.54163 | -59.02728 | 40668 ft | 422 kts | 239° |
| 2026-05-08 16:37 | 46.51680 | -59.10462 | 40672 ft | 422 kts | 239° |
| 2026-05-08 16:37 | 46.49196 | -59.18174 | 40671 ft | 422 kts | 239° |
| 2026-05-08 16:38 | 46.46718 | -59.25842 | 40670 ft | 423 kts | 239° |
| 2026-05-08 16:38 | 46.44217 | -59.33561 | 40674 ft | 423 kts | 239° |
| 2026-05-08 16:39 | 46.41709 | -59.41280 | 40674 ft | 423 kts | 239° |
| 2026-05-08 16:39 | 46.39196 | -59.48994 | 40673 ft | 423 kts | 239° |
| 2026-05-08 16:40 | 46.36677 | -59.56695 | 40674 ft | 423 kts | 239° |
| 2026-05-08 16:40 | 46.34153 | -59.64393 | 40683 ft | 423 kts | 239° |
| 2026-05-08 16:41 | 46.31627 | -59.72076 | 40679 ft | 423 kts | 239° |
| 2026-05-08 16:42 | 46.27842 | -59.83544 | 40681 ft | 423 kts | 239° |
| 2026-05-08 16:42 | 46.25296 | -59.91228 | 40720 ft | 424 kts | 239° |
| 2026-05-08 16:43 | 46.22740 | -59.98920 | 40685 ft | 426 kts | 239° |
| 2026-05-08 16:43 | 46.20165 | -60.06644 | 40667 ft | 427 kts | 239° |
| 2026-05-08 16:44 | 46.17588 | -60.14357 | 40663 ft | 427 kts | 239° |
| 2026-05-08 16:44 | 46.15007 | -60.22059 | 40668 ft | 427 kts | 239° |
| 2026-05-08 16:45 | 46.12414 | -60.29768 | 40665 ft | 427 kts | 239° |
| 2026-05-08 16:45 | 46.09831 | -60.37428 | 40666 ft | 427 kts | 239° |
| 2026-05-08 16:46 | 46.07226 | -60.45134 | 40669 ft | 427 kts | 239° |
| 2026-05-08 16:46 | 46.04617 | -60.52825 | 40668 ft | 427 kts | 239° |
| 2026-05-08 16:47 | 46.02002 | -60.60514 | 40671 ft | 428 kts | 239° |
| 2026-05-08 16:47 | 45.99371 | -60.68222 | 40670 ft | 429 kts | 239° |
| 2026-05-08 16:48 | 45.96731 | -60.75939 | 40654 ft | 430 kts | 239° |
| 2026-05-08 16:48 | 45.94083 | -60.83658 | 40656 ft | 430 kts | 239° |
| 2026-05-08 16:49 | 45.91434 | -60.91355 | 40658 ft | 430 kts | 239° |
| 2026-05-08 16:49 | 45.88786 | -60.99024 | 40668 ft | 430 kts | 239° |
| 2026-05-08 16:50 | 45.86122 | -61.06723 | 40675 ft | 430 kts | 239° |
| 2026-05-08 16:50 | 45.83454 | -61.14405 | 40669 ft | 430 kts | 239° |
| 2026-05-08 16:51 | 45.80733 | -61.22037 | 40673 ft | 430 kts | 238° |
| 2026-05-08 16:51 | 45.78066 | -61.29669 | 40677 ft | 431 kts | 239° |
| 2026-05-08 16:52 | 45.75411 | -61.37379 | 40712 ft | 432 kts | 239° |
| 2026-05-08 16:52 | 45.72711 | -61.45128 | 40694 ft | 435 kts | 239° |
| 2026-05-08 16:53 | 45.68638 | -61.56693 | 40671 ft | 435 kts | 239° |
| 2026-05-08 16:53 | 45.65906 | -61.64412 | 40674 ft | 435 kts | 239° |
| 2026-05-08 16:54 | 45.63164 | -61.72139 | 40678 ft | 435 kts | 239° |
| 2026-05-08 16:54 | 45.60420 | -61.79852 | 40683 ft | 435 kts | 239° |
| 2026-05-08 16:55 | 45.57671 | -61.87557 | 40688 ft | 435 kts | 239° |
| 2026-05-08 16:55 | 45.54917 | -61.95256 | 40689 ft | 435 kts | 239° |
| 2026-05-08 16:56 | 45.52156 | -62.02948 | 40686 ft | 435 kts | 239° |
| 2026-05-08 16:56 | 45.49403 | -62.10597 | 40711 ft | 436 kts | 239° |
| 2026-05-08 16:57 | 45.46618 | -62.18312 | 40689 ft | 439 kts | 239° |
| 2026-05-08 16:57 | 45.43819 | -62.26048 | 40690 ft | 440 kts | 239° |
| 2026-05-08 16:58 | 45.41016 | -62.33774 | 40689 ft | 439 kts | 239° |
| 2026-05-08 16:58 | 45.38198 | -62.41517 | 40688 ft | 439 kts | 239° |
| 2026-05-08 16:59 | 45.35385 | -62.49223 | 40686 ft | 439 kts | 239° |
| 2026-05-08 16:59 | 45.32558 | -62.56946 | 40683 ft | 439 kts | 239° |
| 2026-05-08 17:00 | 45.29747 | -62.64604 | 40686 ft | 439 kts | 239° |
| 2026-05-08 17:00 | 45.26917 | -62.72291 | 40685 ft | 439 kts | 239° |
| 2026-05-08 17:01 | 45.24079 | -62.79978 | 40718 ft | 440 kts | 239° |
| 2026-05-08 17:01 | 45.21224 | -62.87690 | 40680 ft | 442 kts | 239° |
| 2026-05-08 17:02 | 45.18356 | -62.95412 | 40681 ft | 443 kts | 239° |
| 2026-05-08 17:02 | 45.15482 | -63.03133 | 40686 ft | 443 kts | 239° |
| 2026-05-08 17:03 | 45.12604 | -63.10842 | 40686 ft | 443 kts | 239° |
| 2026-05-08 17:03 | 45.09718 | -63.18550 | 40689 ft | 442 kts | 239° |
| 2026-05-08 17:04 | 45.06850 | -63.26190 | 40694 ft | 443 kts | 239° |
| 2026-05-08 17:04 | 45.03953 | -63.33885 | 40694 ft | 443 kts | 239° |
| 2026-05-08 17:05 | 45.01053 | -63.41565 | 40703 ft | 442 kts | 239° |
| 2026-05-08 17:05 | 44.98148 | -63.49238 | 40751 ft | 442 kts | 239° |
| 2026-05-08 17:06 | 44.95240 | -63.56897 | 40700 ft | 444 kts | 239° |
| 2026-05-08 17:06 | 44.92314 | -63.64581 | 40701 ft | 444 kts | 239° |
| 2026-05-08 17:07 | 44.89389 | -63.72244 | 40703 ft | 444 kts | 239° |
| 2026-05-08 17:07 | 44.86451 | -63.79918 | 40708 ft | 444 kts | 239° |
| 2026-05-08 17:08 | 44.83509 | -63.87582 | 40713 ft | 444 kts | 239° |
| 2026-05-08 17:09 | 44.77676 | -64.02714 | 40703 ft | 444 kts | 239° |
| 2026-05-08 17:09 | 44.74724 | -64.10342 | 40715 ft | 444 kts | 239° |
| 2026-05-08 17:10 | 44.71763 | -64.17972 | 40730 ft | 445 kts | 239° |
| 2026-05-08 17:10 | 44.68790 | -64.25610 | 40699 ft | 446 kts | 239° |
| 2026-05-08 17:11 | 44.65805 | -64.33259 | 40695 ft | 447 kts | 239° |
| 2026-05-08 17:11 | 44.62815 | -64.40901 | 40699 ft | 447 kts | 240° |
| 2026-05-08 17:12 | 44.59839 | -64.48484 | 40701 ft | 446 kts | 239° |
| 2026-05-08 17:12 | 44.56845 | -64.56095 | 40704 ft | 446 kts | 239° |
| 2026-05-08 17:13 | 44.53841 | -64.63709 | 40710 ft | 446 kts | 239° |
| 2026-05-08 17:13 | 44.50835 | -64.71307 | 40717 ft | 446 kts | 239° |
| 2026-05-08 17:14 | 44.47845 | -64.78845 | 40719 ft | 446 kts | 240° |
| 2026-05-08 17:14 | 44.44826 | -64.86437 | 40742 ft | 446 kts | 240° |
| 2026-05-08 17:15 | 44.41801 | -64.94021 | 40730 ft | 447 kts | 240° |
| 2026-05-08 17:15 | 44.38762 | -65.01621 | 40748 ft | 447 kts | 240° |
| 2026-05-08 17:16 | 44.35742 | -65.09153 | 40745 ft | 447 kts | 240° |
| 2026-05-08 17:16 | 44.32697 | -65.16728 | 40751 ft | 447 kts | 240° |
| 2026-05-08 17:17 | 44.29653 | -65.24278 | 40756 ft | 446 kts | 240° |
| 2026-05-08 17:17 | 44.26602 | -65.31828 | 40764 ft | 446 kts | 240° |
| 2026-05-08 17:18 | 44.23567 | -65.39317 | 40762 ft | 446 kts | 240° |
| 2026-05-08 17:18 | 44.20508 | -65.46845 | 40766 ft | 446 kts | 240° |
| 2026-05-08 17:19 | 44.17440 | -65.54374 | 40766 ft | 447 kts | 240° |
| 2026-05-08 17:19 | 44.14359 | -65.61917 | 40767 ft | 448 kts | 240° |
| 2026-05-08 17:20 | 44.11291 | -65.69409 | 40794 ft | 448 kts | 240° |
| 2026-05-08 17:20 | 44.08200 | -65.76937 | 40804 ft | 448 kts | 240° |
| 2026-05-08 17:21 | 44.05098 | -65.84471 | 40796 ft | 448 kts | 240° |
| 2026-05-08 17:21 | 44.01995 | -65.91986 | 40798 ft | 448 kts | 240° |
| 2026-05-08 17:22 | 43.98907 | -65.99447 | 40798 ft | 448 kts | 240° |
| 2026-05-08 17:22 | 43.95797 | -66.06938 | 40805 ft | 447 kts | 240° |
| 2026-05-08 17:23 | 43.92688 | -66.14411 | 40818 ft | 447 kts | 240° |
| 2026-05-08 17:23 | 43.89573 | -66.21879 | 40805 ft | 448 kts | 240° |
| 2026-05-08 17:24 | 43.86446 | -66.29356 | 40807 ft | 448 kts | 240° |
| 2026-05-08 17:24 | 43.83334 | -66.36775 | 40807 ft | 448 kts | 240° |
| 2026-05-08 17:25 | 43.80201 | -66.44228 | 40812 ft | 447 kts | 240° |
| 2026-05-08 17:25 | 43.77067 | -66.51663 | 40819 ft | 447 kts | 240° |
| 2026-05-08 17:26 | 43.73931 | -66.59084 | 40820 ft | 447 kts | 240° |
| 2026-05-08 17:26 | 43.70805 | -66.66460 | 40831 ft | 447 kts | 240° |
| 2026-05-08 17:27 | 43.67662 | -66.73860 | 40813 ft | 447 kts | 240° |
| 2026-05-08 17:27 | 43.64514 | -66.81252 | 40833 ft | 447 kts | 240° |
| 2026-05-08 17:28 | 43.61350 | -66.88661 | 40838 ft | 448 kts | 240° |
| 2026-05-08 17:28 | 43.58206 | -66.96007 | 40825 ft | 448 kts | 240° |
| 2026-05-08 17:29 | 43.55047 | -67.03404 | 40843 ft | 447 kts | 241° |
| 2026-05-08 17:29 | 43.51944 | -67.10829 | 40843 ft | 447 kts | 241° |
| 2026-05-08 17:30 | 43.48834 | -67.18242 | 40847 ft | 447 kts | 240° |
| 2026-05-08 17:30 | 43.45716 | -67.25642 | 40845 ft | 447 kts | 240° |
| 2026-05-08 17:31 | 43.42614 | -67.32983 | 40860 ft | 447 kts | 240° |
| 2026-05-08 17:31 | 43.39484 | -67.40368 | 40849 ft | 447 kts | 240° |
| 2026-05-08 17:32 | 43.36350 | -67.47747 | 40851 ft | 447 kts | 240° |
| 2026-05-08 17:32 | 43.33212 | -67.55113 | 40856 ft | 447 kts | 240° |
| 2026-05-08 17:33 | 43.30089 | -67.62426 | 40859 ft | 446 kts | 241° |
| 2026-05-08 17:33 | 43.26951 | -67.69759 | 40864 ft | 445 kts | 240° |
| 2026-05-08 17:34 | 43.23812 | -67.77072 | 40869 ft | 445 kts | 240° |
| 2026-05-08 17:34 | 43.20666 | -67.84385 | 40868 ft | 445 kts | 240° |
| 2026-05-08 17:35 | 43.17538 | -67.91637 | 40870 ft | 444 kts | 241° |
| 2026-05-08 17:35 | 43.14396 | -67.98904 | 40884 ft | 443 kts | 241° |
| 2026-05-08 17:36 | 43.11252 | -68.06156 | 40869 ft | 443 kts | 241° |
| 2026-05-08 17:36 | 43.08101 | -68.13409 | 40867 ft | 443 kts | 240° |
| 2026-05-08 17:37 | 43.04947 | -68.20650 | 40872 ft | 443 kts | 241° |
| 2026-05-08 17:37 | 43.01819 | -68.27812 | 40875 ft | 441 kts | 241° |
| 2026-05-08 17:38 | 42.98672 | -68.35001 | 40880 ft | 441 kts | 240° |
| 2026-05-08 17:38 | 42.95522 | -68.42180 | 40882 ft | 441 kts | 240° |
| 2026-05-08 17:39 | 42.92388 | -68.49303 | 40869 ft | 440 kts | 240° |
| 2026-05-08 17:39 | 42.89235 | -68.56453 | 40890 ft | 440 kts | 241° |
| 2026-05-08 17:40 | 42.86080 | -68.63591 | 40883 ft | 439 kts | 241° |
| 2026-05-08 17:40 | 42.82921 | -68.70719 | 40885 ft | 439 kts | 240° |
| 2026-05-08 17:41 | 42.79759 | -68.77838 | 40885 ft | 439 kts | 240° |
| 2026-05-08 17:41 | 42.76615 | -68.84900 | 40890 ft | 439 kts | 240° |
| 2026-05-08 17:42 | 42.73440 | -68.92013 | 40892 ft | 440 kts | 240° |
| 2026-05-08 17:42 | 42.70260 | -68.99120 | 40896 ft | 440 kts | 240° |
| 2026-05-08 17:43 | 42.67071 | -69.06230 | 40894 ft | 440 kts | 240° |
| 2026-05-08 17:43 | 42.63881 | -69.13327 | 40892 ft | 440 kts | 240° |
| 2026-05-08 17:44 | 42.60717 | -69.20348 | 40899 ft | 439 kts | 240° |
| 2026-05-08 17:44 | 42.57522 | -69.27421 | 40881 ft | 440 kts | 240° |
| 2026-05-08 17:45 | 42.54319 | -69.34493 | 40884 ft | 440 kts | 240° |
| 2026-05-08 17:45 | 42.51134 | -69.41511 | 40890 ft | 439 kts | 240° |
| 2026-05-08 17:46 | 42.47934 | -69.48544 | 40897 ft | 438 kts | 240° |
| 2026-05-08 17:46 | 42.44730 | -69.55570 | 40904 ft | 439 kts | 240° |
| 2026-05-08 17:47 | 42.41514 | -69.62607 | 40898 ft | 440 kts | 240° |
| 2026-05-08 17:47 | 42.38835 | -69.68456 | 40867 ft | 440 kts | 240° |
| 2026-05-08 17:48 | 42.35067 | -69.76661 | 40896 ft | 439 kts | 240° |
| 2026-05-08 17:48 | 42.31866 | -69.83614 | 40899 ft | 438 kts | 240° |
| 2026-05-08 17:49 | 42.28646 | -69.90593 | 40900 ft | 439 kts | 240° |
| 2026-05-08 17:49 | 42.25410 | -69.97590 | 40898 ft | 439 kts | 240° |
| 2026-05-08 17:50 | 42.22174 | -70.04568 | 40894 ft | 438 kts | 240° |
| 2026-05-08 17:50 | 42.18965 | -70.11476 | 40895 ft | 437 kts | 240° |
| 2026-05-08 17:51 | 42.15730 | -70.18423 | 40898 ft | 437 kts | 240° |
| 2026-05-08 17:51 | 42.12493 | -70.25357 | 40897 ft | 439 kts | 240° |
| 2026-05-08 17:52 | 42.09234 | -70.32323 | 40875 ft | 439 kts | 240° |
| 2026-05-08 17:53 | 42.04448 | -70.42763 | 40873 ft | 437 kts | 245° |
| 2026-05-08 17:53 | 42.01995 | -70.50212 | 40875 ft | 436 kts | 249° |
| 2026-05-08 17:54 | 41.99648 | -70.57729 | 40870 ft | 437 kts | 249° |
| 2026-05-08 17:54 | 41.97279 | -70.65270 | 40866 ft | 439 kts | 249° |
| 2026-05-08 17:55 | 41.94914 | -70.72765 | 40869 ft | 438 kts | 249° |
| 2026-05-08 17:55 | 41.92537 | -70.80274 | 40869 ft | 437 kts | 249° |
| 2026-05-08 17:56 | 41.90155 | -70.87777 | 40880 ft | 437 kts | 249° |
| 2026-05-08 17:56 | 41.87771 | -70.95280 | 40884 ft | 438 kts | 251° |
| 2026-05-08 17:57 | 41.85442 | -71.02833 | 40885 ft | 438 kts | 251° |
| 2026-05-08 17:57 | 41.83454 | -71.09091 | 40867 ft | 439 kts | 249° |
| 2026-05-08 17:58 | 41.80597 | -71.17768 | 40882 ft | 437 kts | 249° |
| 2026-05-08 17:58 | 41.78173 | -71.25232 | 40883 ft | 436 kts | 249° |
| 2026-05-08 17:59 | 41.75761 | -71.32687 | 40780 ft | 435 kts | 249° |
| 2026-05-08 17:59 | 41.74558 | -71.36399 | 40555 ft | 435 kts | 249° |
| 2026-05-08 17:59 | 41.73759 | -71.38869 | 40398 ft | 436 kts | 249° |
| 2026-05-08 17:59 | 41.72553 | -71.42588 | 40172 ft | 436 kts | 249° |
| 2026-05-08 18:00 | 41.71360 | -71.46321 | 39948 ft | 436 kts | 251° |
| 2026-05-08 18:00 | 41.69232 | -71.53902 | 39483 ft | 436 kts | 248° |
| 2026-05-08 18:00 | 41.67307 | -71.58635 | 38776 ft | 440 kts | 242° |
| 2026-05-08 18:01 | 41.66123 | -71.60919 | 38183 ft | 444 kts | 237° |
| 2026-05-08 18:01 | 41.64041 | -71.64017 | 37209 ft | 454 kts | 229° |
| 2026-05-08 18:01 | 41.61538 | -71.66582 | 36305 ft | 464 kts | 219° |
| 2026-05-08 18:01 | 41.58785 | -71.68779 | 35356 ft | 459 kts | 218° |
| 2026-05-08 18:02 | 41.56012 | -71.70882 | 34423 ft | 458 kts | 218° |
| 2026-05-08 18:02 | 41.53239 | -71.72980 | 33420 ft | 458 kts | 218° |
| 2026-05-08 18:02 | 41.50466 | -71.75082 | 32363 ft | 458 kts | 219° |
| 2026-05-08 18:02 | 41.47693 | -71.77186 | 31364 ft | 459 kts | 219° |
| 2026-05-08 18:03 | 41.44912 | -71.79297 | 30376 ft | 461 kts | 219° |
| 2026-05-08 18:03 | 41.42126 | -71.81411 | 29300 ft | 461 kts | 219° |
| 2026-05-08 18:03 | 41.39342 | -71.83520 | 28189 ft | 457 kts | 218° |
| 2026-05-08 18:03 | 41.36601 | -71.85590 | 27114 ft | 450 kts | 218° |
| 2026-05-08 18:04 | 41.33939 | -71.87590 | 26106 ft | 441 kts | 217° |
| 2026-05-08 18:04 | 41.31271 | -71.89549 | 25133 ft | 434 kts | 217° |
| 2026-05-08 18:04 | 41.28698 | -71.91545 | 24421 ft | 422 kts | 221° |
| 2026-05-08 18:04 | 41.26390 | -71.93888 | 24037 ft | 414 kts | 227° |
| 2026-05-08 18:05 | 41.24191 | -71.96339 | 23916 ft | 412 kts | 228° |
| 2026-05-08 18:05 | 41.21998 | -71.98789 | 23914 ft | 411 kts | 227° |
| 2026-05-08 18:05 | 41.19808 | -72.01215 | 23918 ft | 410 kts | 227° |
| 2026-05-08 18:05 | 41.17609 | -72.03640 | 23920 ft | 410 kts | 227° |
| 2026-05-08 18:06 | 41.15412 | -72.06054 | 23931 ft | 410 kts | 227° |
| 2026-05-08 18:06 | 41.13213 | -72.08464 | 23935 ft | 410 kts | 227° |
| 2026-05-08 18:06 | 41.11140 | -72.11020 | 23934 ft | 403 kts | 235° |
| 2026-05-08 18:06 | 41.09577 | -72.14031 | 23935 ft | 392 kts | 248° |
| 2026-05-08 18:07 | 41.08582 | -72.17309 | 23937 ft | 388 kts | 255° |
| 2026-05-08 18:07 | 41.07741 | -72.20707 | 23935 ft | 388 kts | 256° |
| 2026-05-08 18:07 | 41.06911 | -72.24131 | 23936 ft | 391 kts | 256° |
| 2026-05-08 18:07 | 41.06073 | -72.27553 | 23936 ft | 390 kts | 256° |
| 2026-05-08 18:08 | 41.05232 | -72.30966 | 23935 ft | 390 kts | 256° |
| 2026-05-08 18:08 | 41.04393 | -72.34352 | 23710 ft | 382 kts | 256° |
| 2026-05-08 18:08 | 41.03562 | -72.37697 | 23333 ft | 385 kts | 256° |
| 2026-05-08 18:08 | 41.02725 | -72.41061 | 23171 ft | 380 kts | 256° |
| 2026-05-08 18:09 | 41.01907 | -72.44324 | 22671 ft | 374 kts | 256° |
| 2026-05-08 18:09 | 41.01083 | -72.47631 | 21831 ft | 379 kts | 256° |
| 2026-05-08 18:09 | 41.00271 | -72.50865 | 20923 ft | 359 kts | 255° |
| 2026-05-08 18:09 | 40.99501 | -72.53915 | 20041 ft | 340 kts | 256° |
| 2026-05-08 18:10 | 40.98774 | -72.56799 | 19183 ft | 324 kts | 256° |
| 2026-05-08 18:10 | 40.98086 | -72.59532 | 18359 ft | 310 kts | 256° |
| 2026-05-08 18:10 | 40.97416 | -72.62188 | 17420 ft | 299 kts | 257° |
| 2026-05-08 18:10 | 40.96769 | -72.64759 | 16501 ft | 290 kts | 257° |
| 2026-05-08 18:11 | 40.96141 | -72.67255 | 15584 ft | 282 kts | 257° |
| 2026-05-08 18:11 | 40.95528 | -72.69690 | 14741 ft | 276 kts | 257° |
| 2026-05-08 18:11 | 40.94930 | -72.72057 | 14020 ft | 267 kts | 257° |
| 2026-05-08 18:11 | 40.94352 | -72.74342 | 13285 ft | 259 kts | 257° |
| 2026-05-08 18:12 | 40.93771 | -72.76580 | 12499 ft | 257 kts | 255° |
| 2026-05-08 18:12 | 40.92986 | -72.78768 | 11656 ft | 276 kts | 245° |
| 2026-05-08 18:12 | 40.91771 | -72.80887 | 10840 ft | 297 kts | 232° |
| 2026-05-08 18:12 | 40.90192 | -72.82647 | 10037 ft | 297 kts | 222° |
| 2026-05-08 18:13 | 40.88514 | -72.84239 | 9333 ft | 297 kts | 221° |
| 2026-05-08 18:13 | 40.86825 | -72.85826 | 9022 ft | 300 kts | 221° |
| 2026-05-08 18:13 | 40.85142 | -72.87416 | 8964 ft | 296 kts | 221° |
| 2026-05-08 18:13 | 40.83491 | -72.88987 | 8967 ft | 298 kts | 221° |
| 2026-05-08 18:14 | 40.81828 | -72.90571 | 8967 ft | 291 kts | 221° |
| 2026-05-08 18:14 | 40.80194 | -72.92130 | 8968 ft | 289 kts | 221° |
| 2026-05-08 18:14 | 40.78562 | -72.93690 | 8973 ft | 289 kts | 221° |
| 2026-05-08 18:14 | 40.76938 | -72.95245 | 8965 ft | 288 kts | 221° |
| 2026-05-08 18:15 | 40.75316 | -72.96793 | 8972 ft | 287 kts | 221° |
| 2026-05-08 18:15 | 40.73703 | -72.98334 | 8974 ft | 286 kts | 221° |
| 2026-05-08 18:15 | 40.72088 | -72.99876 | 8974 ft | 286 kts | 221° |
| 2026-05-08 18:15 | 40.70497 | -73.01444 | 8974 ft | 285 kts | 225° |
| 2026-05-08 18:16 | 40.68938 | -73.03026 | 8972 ft | 287 kts | 223° |
| 2026-05-08 18:16 | 40.67345 | -73.04602 | 8719 ft | 284 kts | 223° |
| 2026-05-08 18:16 | 40.65770 | -73.06156 | 8122 ft | 283 kts | 223° |
| 2026-05-08 18:16 | 40.64199 | -73.07720 | 7531 ft | 282 kts | 223° |
| 2026-05-08 18:17 | 40.62653 | -73.09278 | 6970 ft | 279 kts | 223° |
| 2026-05-08 18:17 | 40.61124 | -73.10835 | 6422 ft | 273 kts | 223° |
| 2026-05-08 18:17 | 40.59674 | -73.12319 | 5828 ft | 257 kts | 223° |
| 2026-05-08 18:17 | 40.58286 | -73.13751 | 5288 ft | 250 kts | 224° |
| 2026-05-08 18:18 | 40.57227 | -73.15491 | 4852 ft | 241 kts | 248° |
| 2026-05-08 18:18 | 40.56687 | -73.17487 | 4402 ft | 223 kts | 256° |
| 2026-05-08 18:18 | 40.56277 | -73.19400 | 3955 ft | 213 kts | 257° |
| 2026-05-08 18:18 | 40.55901 | -73.21241 | 3527 ft | 211 kts | 257° |
| 2026-05-08 18:19 | 40.55523 | -73.23099 | 3122 ft | 211 kts | 257° |
| 2026-05-08 18:19 | 40.55145 | -73.24963 | 2985 ft | 212 kts | 257° |
| 2026-05-08 18:19 | 40.54772 | -73.26836 | 2976 ft | 211 kts | 257° |
| 2026-05-08 18:19 | 40.54398 | -73.28693 | 2972 ft | 209 kts | 257° |
| 2026-05-08 18:20 | 40.54023 | -73.30539 | 2974 ft | 210 kts | 257° |
| 2026-05-08 18:20 | 40.53659 | -73.32401 | 2975 ft | 210 kts | 257° |
| 2026-05-08 18:20 | 40.53295 | -73.34257 | 2973 ft | 209 kts | 257° |
| 2026-05-08 18:20 | 40.52938 | -73.36086 | 2976 ft | 210 kts | 257° |
| 2026-05-08 18:21 | 40.52684 | -73.37991 | 2980 ft | 209 kts | 266° |
| 2026-05-08 18:21 | 40.52581 | -73.39875 | 2972 ft | 209 kts | 266° |
| 2026-05-08 18:21 | 40.52480 | -73.41782 | 2975 ft | 209 kts | 266° |
| 2026-05-08 18:21 | 40.52379 | -73.43691 | 2975 ft | 209 kts | 266° |
| 2026-05-08 18:22 | 40.52279 | -73.45602 | 2973 ft | 209 kts | 266° |
| 2026-05-08 18:22 | 40.52474 | -73.47490 | 2978 ft | 211 kts | 288° |
| 2026-05-08 18:22 | 40.53060 | -73.49255 | 2976 ft | 211 kts | 294° |
| 2026-05-08 18:22 | 40.53711 | -73.50991 | 2975 ft | 211 kts | 294° |
| 2026-05-08 18:23 | 40.54341 | -73.52645 | 2969 ft | 197 kts | 294° |
| 2026-05-08 18:23 | 40.54947 | -73.54220 | 3001 ft | 187 kts | 294° |
| 2026-05-08 18:23 | 40.55528 | -73.55727 | 2998 ft | 187 kts | 294° |
| 2026-05-08 18:23 | 40.56093 | -73.57186 | 2985 ft | 170 kts | 294° |
| 2026-05-08 18:24 | 40.56569 | -73.58514 | 2959 ft | 153 kts | 295° |
| 2026-05-08 18:24 | 40.57066 | -73.59711 | 2855 ft | 143 kts | 296° |
| 2026-05-08 18:24 | 40.57542 | -73.60805 | 2679 ft | 134 kts | 296° |
| 2026-05-08 18:24 | 40.58005 | -73.61852 | 2480 ft | 131 kts | 296° |
| 2026-05-08 18:25 | 40.58456 | -73.62861 | 2329 ft | 125 kts | 297° |
| 2026-05-08 18:25 | 40.58890 | -73.63831 | 2184 ft | 122 kts | 296° |
| 2026-05-08 18:25 | 40.59324 | -73.64799 | 2033 ft | 122 kts | 296° |
| 2026-05-08 18:25 | 40.59748 | -73.65732 | 1901 ft | 113 kts | 296° |
| 2026-05-08 18:26 | 40.60144 | -73.66614 | 1892 ft | 113 kts | 297° |
| 2026-05-08 18:26 | 40.60542 | -73.67487 | 1887 ft | 113 kts | 297° |
| 2026-05-08 18:26 | 40.60958 | -73.68404 | 1667 ft | 124 kts | 298° |
| 2026-05-08 18:26 | 40.61424 | -73.69421 | 1118 ft | 134 kts | 298° |
| 2026-05-08 18:27 | 40.61925 | -73.70440 | 768 ft | 131 kts | 301° |
| 2026-05-08 18:27 | 40.62258 | -73.71088 | 590 ft | 122 kts | 300° |
| 2026-05-08 18:27 | 40.62741 | -73.72315 | 520 ft | 126 kts | 297° |
| 2026-05-08 18:27 | 40.63169 | -73.73283 | 396 ft | 116 kts | 302° |
| 2026-05-08 18:28 | 40.63566 | -73.74168 | 337 ft | 111 kts | 302° |
| 2026-05-08 18:28 | 40.63988 | -73.75034 | 224 ft | 112 kts | 298° |
| 2026-05-08 18:28 | 40.64365 | -73.75913 | 115 ft | 112 kts | 301° |
| 2026-05-08 18:28 | 40.64756 | -73.76788 | 26 ft | 107 kts | 301° |
| 2026-05-08 18:29 | 40.65056 | -73.77455 | 26 ft | 48 kts | 300° |
| 2026-05-08 18:29 | 40.65107 | -73.77567 | 30 ft | 3 kts | 302° |
| 2026-05-08 18:29 | 40.65199 | -73.77762 | 27 ft | 47 kts | 303° |
| 2026-05-08 18:29 | 40.65307 | -73.78125 | 29 ft | 23 kts | 269° |
| 2026-05-08 18:30 | 40.65335 | -73.78330 | 31 ft | 6 kts | 296° |
| 2026-05-08 18:30 | 40.65336 | -73.78335 | 31 ft | 2 kts | 297° |
| 2026-05-08 18:30 | 40.65337 | -73.78336 | 31 ft | 0 kts | 297° |
| 2026-05-08 18:31 | 40.65341 | -73.78346 | 31 ft | 3 kts | 297° |
| 2026-05-08 18:31 | 40.65353 | -73.78382 | 30 ft | 5 kts | 288° |
| 2026-05-08 18:31 | 40.65339 | -73.78458 | 30 ft | 13 kts | 222° |
| 2026-05-08 18:32 | 40.65266 | -73.78486 | 29 ft | 10 kts | 223° |
| 2026-05-08 18:32 | 40.65210 | -73.78604 | 34 ft | 16 kts | 240° |
| 2026-05-08 18:32 | 40.65153 | -73.78751 | 30 ft | 24 kts | 252° |
| 2026-05-08 18:32 | 40.65137 | -73.78907 | 30 ft | 0 kts | 239° |
| 2026-05-08 18:33 | 40.65117 | -73.78917 | 30 ft | 8 kts | 192° |
| 2026-05-08 18:33 | 40.65024 | -73.78966 | 30 ft | 16 kts | 232° |
| 2026-05-08 18:33 | 40.65013 | -73.78987 | 30 ft | 0 kts | 236° |
| 2026-05-08 18:33 | 40.65012 | -73.78989 | 30 ft | 0 kts | 236° |
| 2026-05-08 18:34 | 40.64980 | -73.79043 | 30 ft | 10 kts | 221° |
| 2026-05-08 18:34 | 40.64930 | -73.79057 | 30 ft | 0 kts | 179° |
| 2026-05-08 18:35 | 40.64921 | -73.79057 | 30 ft | 2 kts | 181° |
| 2026-05-08 18:35 | 40.64911 | -73.79056 | 30 ft | 0 kts | 175° |
| 2026-05-08 18:35 | 40.64906 | -73.79055 | 30 ft | 0 kts | 174° |